GAF834 EDDK-EDDK
Flight info
| Callsign | GAF834 |
|---|---|
| Flight time | 5h 6m |
| Altitude | 39000 |
| Route | NVO2D NVO DCT LNO DCT BSN DCT DIDAK UZ15 ARDOD A5 VALAX DCT LFRS DCT ERBIN DCT LUTAS DCT BAGAD DCT DEGEX DCT DOLUR DCT MOPAT DCT TIPUR DCT EINN DCT PELIG DCT LIFFY UL975 WAL M16 DOLAS L603 LAMSO DCT VALAM DCT GASTU DCT OSTOR T904 RIBSO DCT EDDH DCT IDEKO N850 WRB P12 ESADU T858 KOPAG |
| Aircraft | A319/M-SDE3FGHIRWY/LB1 |
Departure
| Time | 2026-05-06 16:25 |
|---|---|
| Airport | Cologne Bonn Airport (EDDK) |
Arrival
| Time | 2026-05-06 21:31 |
|---|---|
| Airport | Cologne Bonn Airport (EDDK) |
| Time | Latitude | Longitude | Altitude | Speed | Heading |
|---|---|---|---|---|---|
| 2026-05-06 15:37 | 50.86607 | 7.11993 | 235 ft | 0 kts | 255° |
| 2026-05-06 15:48 | 50.86607 | 7.11994 | 232 ft | 0 kts | 255° |
| 2026-05-06 16:00 | 50.86607 | 7.11995 | 232 ft | 0 kts | 255° |
| 2026-05-06 16:04 | 50.86607 | 7.11994 | 232 ft | 0 kts | 255° |
| 2026-05-06 16:04 | 50.86607 | 7.11993 | 232 ft | 0 kts | 255° |
| 2026-05-06 16:10 | 50.86607 | 7.11994 | 232 ft | 0 kts | 255° |
| 2026-05-06 16:12 | 50.86610 | 7.12015 | 232 ft | 4 kts | 255° |
| 2026-05-06 16:12 | 50.86617 | 7.12056 | 232 ft | 4 kts | 255° |
| 2026-05-06 16:12 | 50.86624 | 7.12096 | 235 ft | 2 kts | 255° |
| 2026-05-06 16:13 | 50.86631 | 7.12130 | 233 ft | 4 kts | 236° |
| 2026-05-06 16:13 | 50.86650 | 7.12157 | 233 ft | 4 kts | 193° |
| 2026-05-06 16:13 | 50.86675 | 7.12157 | 232 ft | 4 kts | 165° |
| 2026-05-06 16:13 | 50.86696 | 7.12147 | 232 ft | 0 kts | 165° |
| 2026-05-06 16:17 | 50.86683 | 7.12153 | 233 ft | 5 kts | 165° |
| 2026-05-06 16:18 | 50.86623 | 7.12177 | 232 ft | 12 kts | 165° |
| 2026-05-06 16:18 | 50.86535 | 7.12213 | 232 ft | 14 kts | 165° |
| 2026-05-06 16:18 | 50.86433 | 7.12254 | 232 ft | 16 kts | 165° |
| 2026-05-06 16:18 | 50.86324 | 7.12299 | 233 ft | 16 kts | 165° |
| 2026-05-06 16:19 | 50.86225 | 7.12331 | 237 ft | 14 kts | 169° |
| 2026-05-06 16:19 | 50.86139 | 7.12359 | 241 ft | 11 kts | 166° |
| 2026-05-06 16:19 | 50.86056 | 7.12404 | 243 ft | 15 kts | 141° |
| 2026-05-06 16:19 | 50.86062 | 7.12547 | 245 ft | 15 kts | 63° |
| 2026-05-06 16:20 | 50.86124 | 7.12757 | 241 ft | 29 kts | 64° |
| 2026-05-06 16:20 | 50.86231 | 7.13106 | 243 ft | 41 kts | 64° |
| 2026-05-06 16:20 | 50.86355 | 7.13509 | 250 ft | 40 kts | 64° |
| 2026-05-06 16:20 | 50.86470 | 7.13887 | 252 ft | 27 kts | 64° |
| 2026-05-06 16:21 | 50.86531 | 7.14088 | 253 ft | 15 kts | 64° |
| 2026-05-06 16:21 | 50.86570 | 7.14213 | 256 ft | 12 kts | 64° |
| 2026-05-06 16:21 | 50.86632 | 7.14287 | 258 ft | 15 kts | 338° |
| 2026-05-06 16:21 | 50.86737 | 7.14143 | 253 ft | 25 kts | 332° |
| 2026-05-06 16:22 | 50.86874 | 7.14008 | 246 ft | 16 kts | 339° |
| 2026-05-06 16:22 | 50.86912 | 7.14099 | 252 ft | 11 kts | 96° |
| 2026-05-06 16:22 | 50.86897 | 7.14239 | 256 ft | 14 kts | 101° |
| 2026-05-06 16:22 | 50.86876 | 7.14424 | 258 ft | 22 kts | 98° |
| 2026-05-06 16:23 | 50.86911 | 7.14714 | 256 ft | 30 kts | 64° |
| 2026-05-06 16:23 | 50.87002 | 7.15017 | 260 ft | 29 kts | 65° |
| 2026-05-06 16:23 | 50.87084 | 7.15290 | 270 ft | 25 kts | 64° |
| 2026-05-06 16:23 | 50.87068 | 7.15441 | 278 ft | 13 kts | 153° |
| 2026-05-06 16:24 | 50.86978 | 7.15496 | 285 ft | 14 kts | 181° |
| 2026-05-06 16:24 | 50.86896 | 7.15289 | 271 ft | 47 kts | 245° |
| 2026-05-06 16:24 | 50.86654 | 7.14490 | 259 ft | 112 kts | 244° |
| 2026-05-06 16:24 | 50.86246 | 7.13115 | 307 ft | 158 kts | 248° |
| 2026-05-06 16:25 | 50.85775 | 7.11512 | 963 ft | 160 kts | 249° |
| 2026-05-06 16:25 | 50.85323 | 7.09903 | 1787 ft | 162 kts | 250° |
| 2026-05-06 16:25 | 50.84805 | 7.08200 | 2330 ft | 182 kts | 248° |
| 2026-05-06 16:25 | 50.84266 | 7.06254 | 2819 ft | 204 kts | 257° |
| 2026-05-06 16:26 | 50.84084 | 7.03919 | 3313 ft | 225 kts | 269° |
| 2026-05-06 16:26 | 50.83969 | 7.01350 | 4044 ft | 242 kts | 269° |
| 2026-05-06 16:26 | 50.83852 | 6.98624 | 4860 ft | 258 kts | 269° |
| 2026-05-06 16:26 | 50.83729 | 6.95759 | 5886 ft | 264 kts | 268° |
| 2026-05-06 16:27 | 50.83601 | 6.92826 | 6915 ft | 268 kts | 268° |
| 2026-05-06 16:27 | 50.83470 | 6.89871 | 7937 ft | 271 kts | 267° |
| 2026-05-06 16:27 | 50.83335 | 6.86869 | 8931 ft | 275 kts | 266° |
| 2026-05-06 16:27 | 50.83198 | 6.83822 | 9924 ft | 278 kts | 266° |
| 2026-05-06 16:28 | 50.83054 | 6.80674 | 10434 ft | 298 kts | 266° |
| 2026-05-06 16:28 | 50.82896 | 6.77281 | 10906 ft | 315 kts | 265° |
| 2026-05-06 16:28 | 50.82730 | 6.73793 | 11672 ft | 321 kts | 265° |
| 2026-05-06 16:28 | 50.82562 | 6.70249 | 12493 ft | 325 kts | 265° |
| 2026-05-06 16:29 | 50.82443 | 6.66708 | 13331 ft | 328 kts | 270° |
| 2026-05-06 16:29 | 50.82566 | 6.63067 | 14115 ft | 332 kts | 273° |
| 2026-05-06 16:29 | 50.82725 | 6.59396 | 14821 ft | 336 kts | 273° |
| 2026-05-06 16:29 | 50.82881 | 6.55683 | 15487 ft | 341 kts | 274° |
| 2026-05-06 16:30 | 50.82974 | 6.51902 | 16146 ft | 347 kts | 267° |
| 2026-05-06 16:30 | 50.82722 | 6.49400 | 16603 ft | 350 kts | 254° |
| 2026-05-06 16:30 | 50.81355 | 6.44676 | 17529 ft | 356 kts | 243° |
| 2026-05-06 16:30 | 50.80199 | 6.41203 | 18203 ft | 361 kts | 243° |
| 2026-05-06 16:31 | 50.79015 | 6.37684 | 18830 ft | 364 kts | 242° |
| 2026-05-06 16:31 | 50.77822 | 6.34149 | 19480 ft | 367 kts | 242° |
| 2026-05-06 16:31 | 50.76605 | 6.30549 | 20095 ft | 371 kts | 242° |
| 2026-05-06 16:31 | 50.75379 | 6.26919 | 20701 ft | 375 kts | 242° |
| 2026-05-06 16:32 | 50.74150 | 6.23279 | 21344 ft | 377 kts | 242° |
| 2026-05-06 16:32 | 50.72910 | 6.19607 | 21972 ft | 381 kts | 242° |
| 2026-05-06 16:32 | 50.71669 | 6.15931 | 22545 ft | 385 kts | 242° |
| 2026-05-06 16:32 | 50.70407 | 6.12187 | 23199 ft | 387 kts | 241° |
| 2026-05-06 16:33 | 50.69137 | 6.08425 | 23762 ft | 388 kts | 241° |
| 2026-05-06 16:33 | 50.67855 | 6.04639 | 24213 ft | 394 kts | 242° |
| 2026-05-06 16:33 | 50.66567 | 6.00849 | 24602 ft | 400 kts | 241° |
| 2026-05-06 16:34 | 50.63918 | 5.93064 | 25593 ft | 405 kts | 241° |
| 2026-05-06 16:34 | 50.62578 | 5.89130 | 26070 ft | 408 kts | 241° |
| 2026-05-06 16:34 | 50.61221 | 5.85157 | 26547 ft | 411 kts | 241° |
| 2026-05-06 16:34 | 50.59859 | 5.81177 | 27040 ft | 414 kts | 241° |
| 2026-05-06 16:35 | 50.58488 | 5.77176 | 27515 ft | 416 kts | 241° |
| 2026-05-06 16:35 | 50.57123 | 5.73197 | 27973 ft | 420 kts | 240° |
| 2026-05-06 16:35 | 50.55728 | 5.69143 | 28459 ft | 422 kts | 240° |
| 2026-05-06 16:35 | 50.54319 | 5.65055 | 28949 ft | 425 kts | 239° |
| 2026-05-06 16:36 | 50.52900 | 5.60946 | 29382 ft | 428 kts | 240° |
| 2026-05-06 16:36 | 50.51474 | 5.56822 | 29848 ft | 431 kts | 240° |
| 2026-05-06 16:36 | 50.50032 | 5.52660 | 30199 ft | 435 kts | 239° |
| 2026-05-06 16:36 | 50.48598 | 5.48522 | 30559 ft | 437 kts | 240° |
| 2026-05-06 16:37 | 50.47133 | 5.44303 | 30934 ft | 439 kts | 239° |
| 2026-05-06 16:37 | 50.45662 | 5.40077 | 31320 ft | 441 kts | 240° |
| 2026-05-06 16:37 | 50.44183 | 5.35833 | 31687 ft | 443 kts | 240° |
| 2026-05-06 16:37 | 50.42709 | 5.31608 | 32184 ft | 441 kts | 240° |
| 2026-05-06 16:38 | 50.41258 | 5.27447 | 32732 ft | 439 kts | 240° |
| 2026-05-06 16:38 | 50.39798 | 5.23267 | 33247 ft | 437 kts | 240° |
| 2026-05-06 16:38 | 50.38336 | 5.19095 | 33781 ft | 435 kts | 240° |
| 2026-05-06 16:38 | 50.36875 | 5.14941 | 34230 ft | 434 kts | 240° |
| 2026-05-06 16:39 | 50.35416 | 5.10803 | 34640 ft | 433 kts | 240° |
| 2026-05-06 16:39 | 50.33961 | 5.06678 | 35038 ft | 432 kts | 240° |
| 2026-05-06 16:39 | 50.32528 | 5.02626 | 35409 ft | 432 kts | 240° |
| 2026-05-06 16:39 | 50.31070 | 4.98503 | 35771 ft | 431 kts | 240° |
| 2026-05-06 16:40 | 50.29616 | 4.94386 | 36100 ft | 432 kts | 240° |
| 2026-05-06 16:40 | 50.28170 | 4.90305 | 36430 ft | 432 kts | 240° |
| 2026-05-06 16:40 | 50.26705 | 4.86176 | 36767 ft | 431 kts | 240° |
| 2026-05-06 16:40 | 50.25241 | 4.82062 | 37100 ft | 431 kts | 240° |
| 2026-05-06 16:41 | 50.23778 | 4.77964 | 37424 ft | 431 kts | 240° |
| 2026-05-06 16:41 | 50.22316 | 4.73871 | 37741 ft | 431 kts | 240° |
| 2026-05-06 16:41 | 50.20851 | 4.69773 | 37874 ft | 431 kts | 240° |
| 2026-05-06 16:42 | 50.17940 | 4.61645 | 37889 ft | 431 kts | 240° |
| 2026-05-06 16:42 | 50.15009 | 4.53483 | 37885 ft | 431 kts | 240° |
| 2026-05-06 16:43 | 50.12086 | 4.45375 | 37895 ft | 431 kts | 240° |
| 2026-05-06 16:43 | 50.09134 | 4.37215 | 37894 ft | 431 kts | 240° |
| 2026-05-06 16:44 | 50.06193 | 4.29112 | 37893 ft | 431 kts | 240° |
| 2026-05-06 16:44 | 50.03249 | 4.21026 | 37896 ft | 431 kts | 240° |
| 2026-05-06 16:45 | 50.00278 | 4.12884 | 37897 ft | 431 kts | 240° |
| 2026-05-06 16:45 | 49.97319 | 4.04797 | 37898 ft | 431 kts | 240° |
| 2026-05-06 16:46 | 49.94335 | 3.96678 | 37902 ft | 431 kts | 239° |
| 2026-05-06 16:46 | 49.91354 | 3.88607 | 37902 ft | 432 kts | 239° |
| 2026-05-06 16:47 | 49.88375 | 3.80558 | 37895 ft | 432 kts | 239° |
| 2026-05-06 16:47 | 49.85376 | 3.72476 | 37899 ft | 432 kts | 239° |
| 2026-05-06 16:48 | 49.82375 | 3.64399 | 37901 ft | 432 kts | 239° |
| 2026-05-06 16:48 | 49.79385 | 3.56385 | 37916 ft | 432 kts | 239° |
| 2026-05-06 16:49 | 49.76362 | 3.48316 | 37916 ft | 432 kts | 239° |
| 2026-05-06 16:49 | 49.73337 | 3.40254 | 37916 ft | 432 kts | 239° |
| 2026-05-06 16:50 | 49.70324 | 3.32257 | 37914 ft | 432 kts | 239° |
| 2026-05-06 16:50 | 49.67281 | 3.24213 | 37910 ft | 433 kts | 239° |
| 2026-05-06 16:51 | 49.64256 | 3.16236 | 37910 ft | 433 kts | 239° |
| 2026-05-06 16:51 | 49.61212 | 3.08225 | 37913 ft | 433 kts | 239° |
| 2026-05-06 16:52 | 49.58145 | 3.00194 | 37921 ft | 434 kts | 239° |
| 2026-05-06 16:52 | 49.55081 | 2.92173 | 37914 ft | 434 kts | 239° |
| 2026-05-06 16:53 | 49.52031 | 2.84226 | 37918 ft | 434 kts | 239° |
| 2026-05-06 16:53 | 49.48946 | 2.76217 | 37913 ft | 434 kts | 239° |
| 2026-05-06 16:54 | 49.45879 | 2.68260 | 37919 ft | 434 kts | 239° |
| 2026-05-06 16:54 | 49.42786 | 2.60263 | 37927 ft | 434 kts | 239° |
| 2026-05-06 16:55 | 49.40210 | 2.53633 | 37930 ft | 434 kts | 239° |
| 2026-05-06 16:55 | 49.36592 | 2.44359 | 37942 ft | 435 kts | 239° |
| 2026-05-06 16:56 | 49.33488 | 2.36431 | 37949 ft | 435 kts | 239° |
| 2026-05-06 16:56 | 49.30877 | 2.29768 | 37954 ft | 435 kts | 239° |
| 2026-05-06 16:57 | 49.27775 | 2.21879 | 37952 ft | 434 kts | 239° |
| 2026-05-06 16:57 | 49.24663 | 2.13962 | 37954 ft | 434 kts | 239° |
| 2026-05-06 16:58 | 49.21552 | 2.06080 | 37957 ft | 434 kts | 239° |
| 2026-05-06 16:58 | 49.18430 | 1.98206 | 37954 ft | 434 kts | 239° |
| 2026-05-06 16:59 | 49.15510 | 1.90862 | 37954 ft | 434 kts | 238° |
| 2026-05-06 16:59 | 49.12361 | 1.82986 | 37952 ft | 434 kts | 238° |
| 2026-05-06 17:00 | 49.09205 | 1.75105 | 37948 ft | 433 kts | 239° |
| 2026-05-06 17:00 | 49.06069 | 1.67288 | 37941 ft | 433 kts | 239° |
| 2026-05-06 17:01 | 49.02915 | 1.59443 | 37941 ft | 433 kts | 239° |
| 2026-05-06 17:01 | 48.99768 | 1.51631 | 37939 ft | 434 kts | 239° |
| 2026-05-06 17:02 | 48.96613 | 1.43832 | 37941 ft | 434 kts | 238° |
| 2026-05-06 17:02 | 48.93430 | 1.35991 | 37943 ft | 434 kts | 239° |
| 2026-05-06 17:03 | 48.90242 | 1.28184 | 37939 ft | 434 kts | 238° |
| 2026-05-06 17:03 | 48.87071 | 1.20415 | 37938 ft | 435 kts | 239° |
| 2026-05-06 17:04 | 48.83879 | 1.12597 | 37940 ft | 435 kts | 238° |
| 2026-05-06 17:04 | 48.80663 | 1.04784 | 37942 ft | 436 kts | 238° |
| 2026-05-06 17:05 | 48.77451 | 0.96973 | 37949 ft | 436 kts | 238° |
| 2026-05-06 17:05 | 48.74239 | 0.89195 | 37958 ft | 437 kts | 238° |
| 2026-05-06 17:06 | 48.70998 | 0.81385 | 37963 ft | 437 kts | 238° |
| 2026-05-06 17:06 | 48.67784 | 0.73652 | 37965 ft | 436 kts | 238° |
| 2026-05-06 17:07 | 48.64557 | 0.65895 | 37964 ft | 436 kts | 238° |
| 2026-05-06 17:07 | 48.61309 | 0.58123 | 37957 ft | 436 kts | 238° |
| 2026-05-06 17:08 | 48.58069 | 0.50399 | 37965 ft | 436 kts | 238° |
| 2026-05-06 17:08 | 48.54810 | 0.42654 | 37965 ft | 437 kts | 238° |
| 2026-05-06 17:09 | 48.51539 | 0.34881 | 37969 ft | 437 kts | 238° |
| 2026-05-06 17:09 | 48.48279 | 0.27158 | 37975 ft | 437 kts | 238° |
| 2026-05-06 17:09 | 48.46660 | 0.23339 | 37863 ft | 437 kts | 238° |
| 2026-05-06 17:10 | 48.45013 | 0.19459 | 37260 ft | 439 kts | 238° |
| 2026-05-06 17:10 | 48.43362 | 0.15575 | 36654 ft | 440 kts | 238° |
| 2026-05-06 17:10 | 48.41696 | 0.11662 | 35894 ft | 444 kts | 238° |
| 2026-05-06 17:10 | 48.40026 | 0.07739 | 35084 ft | 449 kts | 238° |
| 2026-05-06 17:11 | 48.38347 | 0.03807 | 34473 ft | 449 kts | 238° |
| 2026-05-06 17:11 | 48.36659 | -0.00142 | 34013 ft | 445 kts | 238° |
| 2026-05-06 17:11 | 48.35003 | -0.04007 | 33449 ft | 441 kts | 239° |
| 2026-05-06 17:11 | 48.33344 | -0.07879 | 32959 ft | 436 kts | 238° |
| 2026-05-06 17:12 | 48.31707 | -0.11695 | 32450 ft | 432 kts | 238° |
| 2026-05-06 17:12 | 48.30082 | -0.15477 | 31962 ft | 428 kts | 238° |
| 2026-05-06 17:12 | 48.28466 | -0.19228 | 31447 ft | 424 kts | 238° |
| 2026-05-06 17:12 | 48.26867 | -0.22875 | 30958 ft | 420 kts | 235° |
| 2026-05-06 17:13 | 48.24959 | -0.26197 | 30460 ft | 417 kts | 225° |
| 2026-05-06 17:13 | 48.22765 | -0.29030 | 29951 ft | 414 kts | 221° |
| 2026-05-06 17:13 | 48.20587 | -0.31747 | 29439 ft | 410 kts | 221° |
| 2026-05-06 17:13 | 48.18410 | -0.34473 | 28963 ft | 404 kts | 221° |
| 2026-05-06 17:14 | 48.16259 | -0.37171 | 28511 ft | 399 kts | 221° |
| 2026-05-06 17:14 | 48.14139 | -0.39828 | 28051 ft | 395 kts | 221° |
| 2026-05-06 17:14 | 48.12039 | -0.42459 | 27614 ft | 391 kts | 221° |
| 2026-05-06 17:14 | 48.09962 | -0.45059 | 27187 ft | 387 kts | 221° |
| 2026-05-06 17:15 | 48.07925 | -0.47603 | 26770 ft | 384 kts | 221° |
| 2026-05-06 17:15 | 48.05883 | -0.50148 | 26367 ft | 381 kts | 221° |
| 2026-05-06 17:15 | 48.03853 | -0.52675 | 25960 ft | 378 kts | 221° |
| 2026-05-06 17:15 | 48.01842 | -0.55175 | 25549 ft | 375 kts | 221° |
| 2026-05-06 17:16 | 47.99834 | -0.57668 | 25138 ft | 372 kts | 221° |
| 2026-05-06 17:16 | 47.97844 | -0.60134 | 24727 ft | 369 kts | 221° |
| 2026-05-06 17:16 | 47.95897 | -0.62543 | 24316 ft | 367 kts | 221° |
| 2026-05-06 17:16 | 47.93939 | -0.64964 | 23903 ft | 365 kts | 221° |
| 2026-05-06 17:17 | 47.91978 | -0.67389 | 23456 ft | 363 kts | 221° |
| 2026-05-06 17:17 | 47.90047 | -0.69778 | 22985 ft | 359 kts | 221° |
| 2026-05-06 17:17 | 47.88130 | -0.72141 | 22560 ft | 355 kts | 221° |
| 2026-05-06 17:17 | 47.86254 | -0.74451 | 22128 ft | 351 kts | 221° |
| 2026-05-06 17:18 | 47.84379 | -0.76764 | 21695 ft | 348 kts | 221° |
| 2026-05-06 17:18 | 47.82518 | -0.79059 | 21260 ft | 345 kts | 221° |
| 2026-05-06 17:18 | 47.80668 | -0.81338 | 20826 ft | 343 kts | 221° |
| 2026-05-06 17:18 | 47.78839 | -0.83585 | 20385 ft | 341 kts | 221° |
| 2026-05-06 17:19 | 47.77033 | -0.85801 | 19957 ft | 338 kts | 221° |
| 2026-05-06 17:19 | 47.75222 | -0.88022 | 19533 ft | 336 kts | 221° |
| 2026-05-06 17:19 | 47.73416 | -0.90232 | 19107 ft | 335 kts | 221° |
| 2026-05-06 17:19 | 47.71621 | -0.92427 | 18668 ft | 334 kts | 221° |
| 2026-05-06 17:20 | 47.69829 | -0.94611 | 18251 ft | 333 kts | 221° |
| 2026-05-06 17:20 | 47.68033 | -0.96799 | 17783 ft | 331 kts | 221° |
| 2026-05-06 17:20 | 47.66261 | -0.98954 | 17358 ft | 328 kts | 221° |
| 2026-05-06 17:20 | 47.64522 | -1.01065 | 16934 ft | 326 kts | 221° |
| 2026-05-06 17:21 | 47.62765 | -1.03197 | 16516 ft | 324 kts | 221° |
| 2026-05-06 17:21 | 47.61024 | -1.05308 | 16097 ft | 322 kts | 221° |
| 2026-05-06 17:21 | 47.59304 | -1.07393 | 15686 ft | 320 kts | 221° |
| 2026-05-06 17:21 | 47.57581 | -1.09479 | 15280 ft | 319 kts | 221° |
| 2026-05-06 17:22 | 47.55911 | -1.11500 | 14874 ft | 318 kts | 221° |
| 2026-05-06 17:22 | 47.54197 | -1.13624 | 14461 ft | 324 kts | 222° |
| 2026-05-06 17:22 | 47.52472 | -1.15801 | 14036 ft | 325 kts | 222° |
| 2026-05-06 17:22 | 47.50775 | -1.17958 | 13601 ft | 324 kts | 222° |
| 2026-05-06 17:23 | 47.49078 | -1.20115 | 13173 ft | 322 kts | 222° |
| 2026-05-06 17:23 | 47.47382 | -1.22267 | 12755 ft | 320 kts | 222° |
| 2026-05-06 17:23 | 47.45709 | -1.24382 | 12346 ft | 318 kts | 222° |
| 2026-05-06 17:23 | 47.44072 | -1.26447 | 11930 ft | 315 kts | 222° |
| 2026-05-06 17:24 | 47.42416 | -1.28548 | 11676 ft | 312 kts | 225° |
| 2026-05-06 17:24 | 47.41107 | -1.31020 | 11405 ft | 308 kts | 240° |
| 2026-05-06 17:24 | 47.39991 | -1.33725 | 11127 ft | 306 kts | 241° |
| 2026-05-06 17:24 | 47.38979 | -1.36217 | 10871 ft | 305 kts | 241° |
| 2026-05-06 17:25 | 47.37933 | -1.38794 | 10613 ft | 304 kts | 241° |
| 2026-05-06 17:25 | 47.36854 | -1.41453 | 10348 ft | 302 kts | 241° |
| 2026-05-06 17:25 | 47.35796 | -1.44067 | 10082 ft | 297 kts | 241° |
| 2026-05-06 17:25 | 47.34757 | -1.46629 | 9819 ft | 292 kts | 241° |
| 2026-05-06 17:26 | 47.33719 | -1.49185 | 9521 ft | 289 kts | 241° |
| 2026-05-06 17:26 | 47.32688 | -1.51721 | 9231 ft | 287 kts | 241° |
| 2026-05-06 17:26 | 47.31714 | -1.54119 | 8950 ft | 286 kts | 241° |
| 2026-05-06 17:26 | 47.30696 | -1.56629 | 8663 ft | 285 kts | 241° |
| 2026-05-06 17:27 | 47.29701 | -1.59084 | 8377 ft | 284 kts | 241° |
| 2026-05-06 17:27 | 47.28689 | -1.61581 | 8092 ft | 283 kts | 241° |
| 2026-05-06 17:27 | 47.27684 | -1.64065 | 7810 ft | 282 kts | 241° |
| 2026-05-06 17:27 | 47.26682 | -1.66549 | 7523 ft | 280 kts | 240° |
| 2026-05-06 17:28 | 47.25720 | -1.68978 | 7254 ft | 278 kts | 241° |
| 2026-05-06 17:28 | 47.24783 | -1.71366 | 6991 ft | 277 kts | 241° |
| 2026-05-06 17:28 | 47.23825 | -1.73816 | 6747 ft | 276 kts | 241° |
| 2026-05-06 17:28 | 47.22871 | -1.76267 | 6499 ft | 275 kts | 241° |
| 2026-05-06 17:29 | 47.21920 | -1.78715 | 6235 ft | 274 kts | 241° |
| 2026-05-06 17:29 | 47.21001 | -1.81079 | 5987 ft | 273 kts | 241° |
| 2026-05-06 17:29 | 47.20072 | -1.83477 | 5737 ft | 272 kts | 240° |
| 2026-05-06 17:29 | 47.18896 | -1.85590 | 5474 ft | 271 kts | 217° |
| 2026-05-06 17:30 | 47.17177 | -1.86679 | 5215 ft | 270 kts | 189° |
| 2026-05-06 17:30 | 47.15294 | -1.86888 | 5021 ft | 271 kts | 181° |
| 2026-05-06 17:30 | 47.13404 | -1.86977 | 4966 ft | 271 kts | 181° |
| 2026-05-06 17:30 | 47.11531 | -1.87051 | 4967 ft | 273 kts | 181° |
| 2026-05-06 17:31 | 47.09625 | -1.87124 | 4714 ft | 272 kts | 181° |
| 2026-05-06 17:31 | 47.07745 | -1.87192 | 4456 ft | 268 kts | 181° |
| 2026-05-06 17:31 | 47.05894 | -1.87262 | 4194 ft | 263 kts | 181° |
| 2026-05-06 17:31 | 47.04085 | -1.87332 | 3939 ft | 259 kts | 181° |
| 2026-05-06 17:32 | 47.02317 | -1.87403 | 3676 ft | 252 kts | 181° |
| 2026-05-06 17:32 | 47.00581 | -1.87478 | 3421 ft | 241 kts | 181° |
| 2026-05-06 17:32 | 46.98966 | -1.87496 | 3164 ft | 228 kts | 172° |
| 2026-05-06 17:32 | 46.97526 | -1.86812 | 2996 ft | 208 kts | 147° |
| 2026-05-06 17:33 | 46.96386 | -1.85645 | 2989 ft | 194 kts | 142° |
| 2026-05-06 17:33 | 46.95412 | -1.84343 | 2997 ft | 188 kts | 126° |
| 2026-05-06 17:33 | 46.94650 | -1.82782 | 3004 ft | 188 kts | 121° |
| 2026-05-06 17:33 | 46.94128 | -1.81087 | 2996 ft | 185 kts | 97° |
| 2026-05-06 17:34 | 46.94274 | -1.79236 | 2990 ft | 181 kts | 65° |
| 2026-05-06 17:34 | 46.95042 | -1.77815 | 2999 ft | 180 kts | 39° |
| 2026-05-06 17:34 | 46.96006 | -1.76624 | 2996 ft | 181 kts | 40° |
| 2026-05-06 17:34 | 46.96967 | -1.75426 | 2994 ft | 182 kts | 40° |
| 2026-05-06 17:35 | 46.97948 | -1.74288 | 2990 ft | 182 kts | 31° |
| 2026-05-06 17:35 | 46.99053 | -1.73412 | 3029 ft | 174 kts | 27° |
| 2026-05-06 17:35 | 47.00077 | -1.72637 | 2985 ft | 157 kts | 28° |
| 2026-05-06 17:36 | 47.01886 | -1.71268 | 2790 ft | 140 kts | 28° |
| 2026-05-06 17:36 | 47.02739 | -1.70622 | 2622 ft | 139 kts | 28° |
| 2026-05-06 17:36 | 47.03635 | -1.69939 | 2521 ft | 151 kts | 28° |
| 2026-05-06 17:36 | 47.04542 | -1.69243 | 2368 ft | 144 kts | 27° |
| 2026-05-06 17:37 | 47.05433 | -1.68575 | 2097 ft | 143 kts | 28° |
| 2026-05-06 17:37 | 47.06313 | -1.67912 | 1873 ft | 139 kts | 27° |
| 2026-05-06 17:37 | 47.07158 | -1.67273 | 1675 ft | 137 kts | 27° |
| 2026-05-06 17:37 | 47.08005 | -1.66631 | 1482 ft | 137 kts | 28° |
| 2026-05-06 17:38 | 47.08821 | -1.66013 | 1311 ft | 129 kts | 27° |
| 2026-05-06 17:38 | 47.09609 | -1.65413 | 1088 ft | 125 kts | 27° |
| 2026-05-06 17:38 | 47.10390 | -1.64828 | 888 ft | 125 kts | 26° |
| 2026-05-06 17:38 | 47.11150 | -1.64255 | 733 ft | 125 kts | 27° |
| 2026-05-06 17:39 | 47.11926 | -1.63653 | 579 ft | 127 kts | 27° |
| 2026-05-06 17:39 | 47.12720 | -1.63048 | 421 ft | 129 kts | 27° |
| 2026-05-06 17:39 | 47.13587 | -1.62388 | 865 ft | 142 kts | 28° |
| 2026-05-06 17:39 | 47.14495 | -1.61755 | 1623 ft | 151 kts | 21° |
| 2026-05-06 17:40 | 47.15558 | -1.61558 | 2330 ft | 156 kts | 358° |
| 2026-05-06 17:40 | 47.16604 | -1.62111 | 2927 ft | 168 kts | 328° |
| 2026-05-06 17:40 | 47.17405 | -1.63400 | 3557 ft | 179 kts | 304° |
| 2026-05-06 17:40 | 47.18066 | -1.65017 | 4166 ft | 192 kts | 302° |
| 2026-05-06 17:41 | 47.18827 | -1.66748 | 4612 ft | 210 kts | 304° |
| 2026-05-06 17:41 | 47.19369 | -1.67932 | 5097 ft | 211 kts | 304° |
| 2026-05-06 17:41 | 47.20221 | -1.69779 | 5678 ft | 226 kts | 305° |
| 2026-05-06 17:41 | 47.21156 | -1.71795 | 6293 ft | 245 kts | 305° |
| 2026-05-06 17:42 | 47.22138 | -1.73917 | 7084 ft | 260 kts | 305° |
| 2026-05-06 17:42 | 47.23125 | -1.76229 | 7915 ft | 272 kts | 299° |
| 2026-05-06 17:42 | 47.24029 | -1.78706 | 8987 ft | 276 kts | 299° |
| 2026-05-06 17:42 | 47.24927 | -1.81168 | 10052 ft | 278 kts | 299° |
| 2026-05-06 17:43 | 47.25875 | -1.83767 | 10602 ft | 299 kts | 299° |
| 2026-05-06 17:43 | 47.26893 | -1.86559 | 11170 ft | 315 kts | 299° |
| 2026-05-06 17:43 | 47.27945 | -1.89449 | 12001 ft | 322 kts | 298° |
| 2026-05-06 17:43 | 47.29011 | -1.92383 | 12875 ft | 327 kts | 298° |
| 2026-05-06 17:44 | 47.30083 | -1.95339 | 13733 ft | 331 kts | 298° |
| 2026-05-06 17:44 | 47.31176 | -1.98354 | 14504 ft | 335 kts | 298° |
| 2026-05-06 17:44 | 47.32274 | -2.01384 | 15271 ft | 339 kts | 298° |
| 2026-05-06 17:44 | 47.33367 | -2.04510 | 16034 ft | 343 kts | 294° |
| 2026-05-06 17:45 | 47.34185 | -2.07782 | 16781 ft | 347 kts | 289° |
| 2026-05-06 17:45 | 47.34996 | -2.11185 | 17567 ft | 351 kts | 289° |
| 2026-05-06 17:45 | 47.35804 | -2.14569 | 18333 ft | 354 kts | 289° |
| 2026-05-06 17:45 | 47.36630 | -2.18021 | 19017 ft | 357 kts | 289° |
| 2026-05-06 17:46 | 47.37448 | -2.21445 | 19714 ft | 360 kts | 289° |
| 2026-05-06 17:46 | 47.38279 | -2.24940 | 20420 ft | 363 kts | 289° |
| 2026-05-06 17:46 | 47.39081 | -2.28318 | 21090 ft | 365 kts | 289° |
| 2026-05-06 17:46 | 47.39951 | -2.31956 | 21790 ft | 368 kts | 291° |
| 2026-05-06 17:47 | 47.41024 | -2.35400 | 22452 ft | 372 kts | 296° |
| 2026-05-06 17:47 | 47.42173 | -2.38856 | 23136 ft | 375 kts | 296° |
| 2026-05-06 17:47 | 47.43331 | -2.42344 | 23765 ft | 378 kts | 296° |
| 2026-05-06 17:47 | 47.44474 | -2.45798 | 24295 ft | 381 kts | 296° |
| 2026-05-06 17:48 | 47.45646 | -2.49349 | 24810 ft | 384 kts | 296° |
| 2026-05-06 17:48 | 47.46814 | -2.52895 | 25308 ft | 388 kts | 296° |
| 2026-05-06 17:48 | 47.48003 | -2.56504 | 25805 ft | 392 kts | 296° |
| 2026-05-06 17:48 | 47.49200 | -2.60137 | 26325 ft | 395 kts | 296° |
| 2026-05-06 17:49 | 47.50413 | -2.63819 | 26824 ft | 398 kts | 296° |
| 2026-05-06 17:49 | 47.51628 | -2.67521 | 27330 ft | 402 kts | 296° |
| 2026-05-06 17:49 | 47.52853 | -2.71261 | 27832 ft | 405 kts | 296° |
| 2026-05-06 17:49 | 47.54075 | -2.75002 | 28320 ft | 408 kts | 296° |
| 2026-05-06 17:50 | 47.55313 | -2.78806 | 28825 ft | 411 kts | 296° |
| 2026-05-06 17:50 | 47.56561 | -2.82643 | 29318 ft | 414 kts | 295° |
| 2026-05-06 17:50 | 47.57854 | -2.86477 | 29798 ft | 418 kts | 299° |
| 2026-05-06 17:50 | 47.59493 | -2.90063 | 30232 ft | 421 kts | 308° |
| 2026-05-06 17:51 | 47.61389 | -2.93323 | 30606 ft | 424 kts | 310° |
| 2026-05-06 17:51 | 47.63335 | -2.96638 | 30995 ft | 427 kts | 310° |
| 2026-05-06 17:51 | 47.65299 | -2.99995 | 31372 ft | 430 kts | 310° |
| 2026-05-06 17:51 | 47.67238 | -3.03318 | 31738 ft | 432 kts | 310° |
| 2026-05-06 17:52 | 47.69215 | -3.06714 | 32170 ft | 433 kts | 310° |
| 2026-05-06 17:52 | 47.71192 | -3.10121 | 32717 ft | 432 kts | 310° |
| 2026-05-06 17:52 | 47.73133 | -3.13456 | 33231 ft | 431 kts | 311° |
| 2026-05-06 17:52 | 47.75295 | -3.16528 | 33755 ft | 431 kts | 320° |
| 2026-05-06 17:53 | 47.77722 | -3.19159 | 34244 ft | 430 kts | 324° |
| 2026-05-06 17:53 | 47.80155 | -3.21701 | 34669 ft | 430 kts | 324° |
| 2026-05-06 17:53 | 47.82630 | -3.24287 | 35084 ft | 430 kts | 324° |
| 2026-05-06 17:53 | 47.85060 | -3.26835 | 35474 ft | 430 kts | 324° |
| 2026-05-06 17:54 | 47.87507 | -3.29407 | 35864 ft | 430 kts | 323° |
| 2026-05-06 17:54 | 47.89935 | -3.31965 | 36241 ft | 430 kts | 323° |
| 2026-05-06 17:54 | 47.92386 | -3.34552 | 36608 ft | 431 kts | 323° |
| 2026-05-06 17:54 | 47.94837 | -3.37143 | 36978 ft | 431 kts | 323° |
| 2026-05-06 17:55 | 47.97277 | -3.39724 | 37338 ft | 431 kts | 323° |
| 2026-05-06 17:55 | 47.99722 | -3.42311 | 37682 ft | 431 kts | 323° |
| 2026-05-06 17:55 | 48.02166 | -3.44901 | 37940 ft | 432 kts | 323° |
| 2026-05-06 17:55 | 48.04595 | -3.47477 | 37984 ft | 432 kts | 323° |
| 2026-05-06 17:56 | 48.09501 | -3.52685 | 37976 ft | 432 kts | 323° |
| 2026-05-06 17:56 | 48.14383 | -3.57885 | 37982 ft | 432 kts | 323° |
| 2026-05-06 17:57 | 48.19283 | -3.63106 | 37983 ft | 431 kts | 323° |
| 2026-05-06 17:57 | 48.24169 | -3.68335 | 37986 ft | 431 kts | 323° |
| 2026-05-06 17:58 | 48.29064 | -3.73595 | 37990 ft | 432 kts | 323° |
| 2026-05-06 17:58 | 48.33922 | -3.78827 | 38008 ft | 432 kts | 323° |
| 2026-05-06 17:59 | 48.38835 | -3.84120 | 38015 ft | 432 kts | 323° |
| 2026-05-06 17:59 | 48.43690 | -3.89364 | 38002 ft | 432 kts | 323° |
| 2026-05-06 18:00 | 48.48575 | -3.94650 | 38008 ft | 432 kts | 323° |
| 2026-05-06 18:00 | 48.53436 | -3.99930 | 38018 ft | 432 kts | 323° |
| 2026-05-06 18:01 | 48.58317 | -4.05240 | 38016 ft | 431 kts | 323° |
| 2026-05-06 18:01 | 48.63188 | -4.10539 | 38016 ft | 431 kts | 323° |
| 2026-05-06 18:02 | 48.68064 | -4.15869 | 38018 ft | 431 kts | 322° |
| 2026-05-06 18:02 | 48.72899 | -4.21188 | 38007 ft | 431 kts | 322° |
| 2026-05-06 18:03 | 48.77734 | -4.26502 | 38008 ft | 431 kts | 322° |
| 2026-05-06 18:03 | 48.82611 | -4.31865 | 38010 ft | 431 kts | 322° |
| 2026-05-06 18:04 | 48.87438 | -4.37190 | 38004 ft | 431 kts | 322° |
| 2026-05-06 18:04 | 48.92306 | -4.42580 | 38001 ft | 431 kts | 322° |
| 2026-05-06 18:05 | 48.97154 | -4.47961 | 38010 ft | 431 kts | 322° |
| 2026-05-06 18:05 | 49.01972 | -4.53324 | 38015 ft | 431 kts | 322° |
| 2026-05-06 18:06 | 49.06817 | -4.58738 | 38019 ft | 431 kts | 322° |
| 2026-05-06 18:06 | 49.11646 | -4.64133 | 38007 ft | 431 kts | 322° |
| 2026-05-06 18:07 | 49.16482 | -4.69553 | 38010 ft | 431 kts | 322° |
| 2026-05-06 18:07 | 49.21320 | -4.74997 | 38015 ft | 431 kts | 322° |
| 2026-05-06 18:08 | 49.26150 | -4.80441 | 38021 ft | 431 kts | 322° |
| 2026-05-06 18:08 | 49.30946 | -4.85849 | 38015 ft | 431 kts | 322° |
| 2026-05-06 18:09 | 49.35781 | -4.91313 | 38018 ft | 431 kts | 322° |
| 2026-05-06 18:09 | 49.40608 | -4.96792 | 38014 ft | 431 kts | 322° |
| 2026-05-06 18:10 | 49.45391 | -5.02241 | 38018 ft | 430 kts | 322° |
| 2026-05-06 18:10 | 49.50239 | -5.07663 | 38013 ft | 431 kts | 324° |
| 2026-05-06 18:11 | 49.55295 | -5.12583 | 38009 ft | 431 kts | 327° |
| 2026-05-06 18:11 | 49.60461 | -5.17352 | 38004 ft | 431 kts | 327° |
| 2026-05-06 18:12 | 49.65578 | -5.22193 | 38013 ft | 431 kts | 327° |
| 2026-05-06 18:12 | 49.70633 | -5.27107 | 38011 ft | 431 kts | 326° |
| 2026-05-06 18:13 | 49.75696 | -5.32062 | 38009 ft | 431 kts | 326° |
| 2026-05-06 18:13 | 49.80767 | -5.37022 | 38010 ft | 431 kts | 326° |
| 2026-05-06 18:14 | 49.85869 | -5.41998 | 38017 ft | 431 kts | 326° |
| 2026-05-06 18:14 | 49.90930 | -5.46949 | 38014 ft | 431 kts | 326° |
| 2026-05-06 18:15 | 49.95964 | -5.51887 | 38011 ft | 430 kts | 326° |
| 2026-05-06 18:15 | 50.01018 | -5.56869 | 38009 ft | 430 kts | 326° |
| 2026-05-06 18:16 | 50.06038 | -5.61829 | 38010 ft | 430 kts | 326° |
| 2026-05-06 18:16 | 50.11096 | -5.66840 | 38005 ft | 430 kts | 326° |
| 2026-05-06 18:17 | 50.16147 | -5.71858 | 38003 ft | 430 kts | 326° |
| 2026-05-06 18:17 | 50.21179 | -5.76873 | 38004 ft | 430 kts | 326° |
| 2026-05-06 18:18 | 50.26237 | -5.81903 | 38005 ft | 430 kts | 326° |
| 2026-05-06 18:18 | 50.31302 | -5.86950 | 38014 ft | 430 kts | 326° |
| 2026-05-06 18:19 | 50.36319 | -5.91977 | 38016 ft | 430 kts | 326° |
| 2026-05-06 18:19 | 50.41336 | -5.97030 | 38018 ft | 430 kts | 326° |
| 2026-05-06 18:20 | 50.46377 | -6.02109 | 38017 ft | 430 kts | 326° |
| 2026-05-06 18:20 | 50.51420 | -6.07202 | 38021 ft | 430 kts | 326° |
| 2026-05-06 18:21 | 50.56458 | -6.12303 | 38023 ft | 430 kts | 326° |
| 2026-05-06 18:21 | 50.61456 | -6.17371 | 38022 ft | 430 kts | 326° |
| 2026-05-06 18:22 | 50.66476 | -6.22482 | 38021 ft | 430 kts | 326° |
| 2026-05-06 18:22 | 50.71495 | -6.27615 | 38028 ft | 430 kts | 326° |
| 2026-05-06 18:23 | 50.76517 | -6.32755 | 38024 ft | 429 kts | 326° |
| 2026-05-06 18:23 | 50.81511 | -6.37867 | 38026 ft | 429 kts | 326° |
| 2026-05-06 18:24 | 50.86524 | -6.43016 | 38022 ft | 429 kts | 326° |
| 2026-05-06 18:24 | 50.91513 | -6.48166 | 38023 ft | 429 kts | 326° |
| 2026-05-06 18:25 | 50.96508 | -6.53345 | 38018 ft | 429 kts | 326° |
| 2026-05-06 18:25 | 51.01480 | -6.58501 | 38016 ft | 428 kts | 326° |
| 2026-05-06 18:26 | 51.06478 | -6.63698 | 38013 ft | 428 kts | 326° |
| 2026-05-06 18:26 | 51.11474 | -6.68897 | 38010 ft | 428 kts | 326° |
| 2026-05-06 18:27 | 51.16445 | -6.74072 | 38015 ft | 428 kts | 326° |
| 2026-05-06 18:27 | 51.21425 | -6.79285 | 38018 ft | 428 kts | 326° |
| 2026-05-06 18:28 | 51.26401 | -6.84520 | 38015 ft | 428 kts | 326° |
| 2026-05-06 18:28 | 51.31387 | -6.89771 | 38017 ft | 428 kts | 326° |
| 2026-05-06 18:29 | 51.35520 | -6.94124 | 38016 ft | 428 kts | 326° |
| 2026-05-06 18:29 | 51.41321 | -7.00257 | 37285 ft | 433 kts | 326° |
| 2026-05-06 18:30 | 51.43002 | -7.02045 | 36865 ft | 434 kts | 326° |
| 2026-05-06 18:30 | 51.45520 | -7.04730 | 36118 ft | 437 kts | 326° |
| 2026-05-06 18:30 | 51.48072 | -7.07459 | 35328 ft | 441 kts | 327° |
| 2026-05-06 18:30 | 51.51489 | -7.11028 | 34456 ft | 439 kts | 329° |
| 2026-05-06 18:31 | 51.53239 | -7.12722 | 34160 ft | 432 kts | 330° |
| 2026-05-06 18:31 | 51.55801 | -7.15081 | 33607 ft | 425 kts | 331° |
| 2026-05-06 18:31 | 51.58371 | -7.17370 | 33114 ft | 415 kts | 332° |
| 2026-05-06 18:31 | 51.60873 | -7.19589 | 32612 ft | 407 kts | 332° |
| 2026-05-06 18:32 | 51.63331 | -7.21795 | 32125 ft | 399 kts | 332° |
| 2026-05-06 18:32 | 51.65724 | -7.23975 | 31644 ft | 392 kts | 331° |
| 2026-05-06 18:32 | 51.68079 | -7.26150 | 31163 ft | 385 kts | 331° |
| 2026-05-06 18:32 | 51.70353 | -7.28269 | 30698 ft | 380 kts | 331° |
| 2026-05-06 18:33 | 51.72658 | -7.30419 | 30253 ft | 374 kts | 331° |
| 2026-05-06 18:33 | 51.74870 | -7.32482 | 29773 ft | 370 kts | 331° |
| 2026-05-06 18:33 | 51.77081 | -7.34548 | 29324 ft | 364 kts | 330° |
| 2026-05-06 18:33 | 51.79261 | -7.36584 | 28903 ft | 359 kts | 330° |
| 2026-05-06 18:34 | 51.81425 | -7.38603 | 28492 ft | 357 kts | 330° |
| 2026-05-06 18:34 | 51.83569 | -7.40608 | 28089 ft | 355 kts | 331° |
| 2026-05-06 18:34 | 51.85674 | -7.42579 | 27702 ft | 353 kts | 330° |
| 2026-05-06 18:34 | 51.87792 | -7.44566 | 27307 ft | 350 kts | 330° |
| 2026-05-06 18:35 | 51.89905 | -7.46546 | 26925 ft | 348 kts | 330° |
| 2026-05-06 18:35 | 51.92000 | -7.48511 | 26555 ft | 346 kts | 330° |
| 2026-05-06 18:35 | 51.94059 | -7.50441 | 26192 ft | 344 kts | 330° |
| 2026-05-06 18:35 | 51.96124 | -7.52378 | 25810 ft | 342 kts | 330° |
| 2026-05-06 18:36 | 51.98187 | -7.54321 | 25429 ft | 340 kts | 330° |
| 2026-05-06 18:36 | 52.00232 | -7.56254 | 25057 ft | 339 kts | 329° |
| 2026-05-06 18:36 | 52.02273 | -7.58186 | 24658 ft | 337 kts | 329° |
| 2026-05-06 18:36 | 52.04295 | -7.60102 | 24270 ft | 336 kts | 330° |
| 2026-05-06 18:37 | 52.06293 | -7.61992 | 23866 ft | 335 kts | 330° |
| 2026-05-06 18:37 | 52.08310 | -7.63895 | 23442 ft | 334 kts | 329° |
| 2026-05-06 18:37 | 52.10312 | -7.65789 | 23001 ft | 331 kts | 329° |
| 2026-05-06 18:37 | 52.12270 | -7.67646 | 22592 ft | 328 kts | 329° |
| 2026-05-06 18:38 | 52.14260 | -7.69538 | 22188 ft | 326 kts | 329° |
| 2026-05-06 18:38 | 52.16186 | -7.71371 | 21769 ft | 323 kts | 329° |
| 2026-05-06 18:38 | 52.18129 | -7.73227 | 21360 ft | 322 kts | 329° |
| 2026-05-06 18:38 | 52.20056 | -7.75069 | 20947 ft | 320 kts | 328° |
| 2026-05-06 18:39 | 52.21980 | -7.76910 | 20531 ft | 319 kts | 328° |
| 2026-05-06 18:39 | 52.23890 | -7.78734 | 20118 ft | 317 kts | 328° |
| 2026-05-06 18:39 | 52.25771 | -7.80535 | 19724 ft | 317 kts | 328° |
| 2026-05-06 18:40 | 52.29571 | -7.84167 | 18902 ft | 315 kts | 327° |
| 2026-05-06 18:40 | 52.31470 | -7.85980 | 18477 ft | 315 kts | 327° |
| 2026-05-06 18:40 | 52.33344 | -7.87772 | 18042 ft | 314 kts | 327° |
| 2026-05-06 18:40 | 52.35227 | -7.89581 | 17618 ft | 313 kts | 327° |
| 2026-05-06 18:41 | 52.37094 | -7.91375 | 17210 ft | 310 kts | 327° |
| 2026-05-06 18:41 | 52.38961 | -7.93172 | 16802 ft | 309 kts | 327° |
| 2026-05-06 18:41 | 52.40810 | -7.94957 | 16397 ft | 307 kts | 328° |
| 2026-05-06 18:41 | 52.42646 | -7.96728 | 15998 ft | 306 kts | 327° |
| 2026-05-06 18:42 | 52.44455 | -7.98475 | 15599 ft | 304 kts | 327° |
| 2026-05-06 18:42 | 52.46276 | -8.00234 | 15202 ft | 303 kts | 327° |
| 2026-05-06 18:42 | 52.48088 | -8.01987 | 14806 ft | 302 kts | 327° |
| 2026-05-06 18:42 | 52.49911 | -8.03754 | 14415 ft | 302 kts | 328° |
| 2026-05-06 18:43 | 52.51723 | -8.05508 | 14014 ft | 301 kts | 328° |
| 2026-05-06 18:43 | 52.53502 | -8.07231 | 13615 ft | 300 kts | 328° |
| 2026-05-06 18:43 | 52.55297 | -8.08976 | 13206 ft | 299 kts | 328° |
| 2026-05-06 18:43 | 52.57082 | -8.10712 | 12820 ft | 297 kts | 328° |
| 2026-05-06 18:44 | 52.58817 | -8.12525 | 12424 ft | 294 kts | 321° |
| 2026-05-06 18:44 | 52.60312 | -8.14789 | 12048 ft | 291 kts | 313° |
| 2026-05-06 18:44 | 52.61718 | -8.17128 | 11674 ft | 289 kts | 313° |
| 2026-05-06 18:44 | 52.63118 | -8.19448 | 11301 ft | 288 kts | 314° |
| 2026-05-06 18:45 | 52.64550 | -8.21813 | 10922 ft | 287 kts | 314° |
| 2026-05-06 18:45 | 52.65962 | -8.24140 | 10544 ft | 286 kts | 314° |
| 2026-05-06 18:45 | 52.67367 | -8.26458 | 10163 ft | 284 kts | 314° |
| 2026-05-06 18:45 | 52.68758 | -8.28760 | 10005 ft | 282 kts | 314° |
| 2026-05-06 18:46 | 52.70149 | -8.31067 | 9787 ft | 285 kts | 314° |
| 2026-05-06 18:46 | 52.71564 | -8.33417 | 9245 ft | 288 kts | 314° |
| 2026-05-06 18:46 | 52.72951 | -8.35725 | 8768 ft | 283 kts | 313° |
| 2026-05-06 18:46 | 52.74333 | -8.38027 | 8253 ft | 281 kts | 313° |
| 2026-05-06 18:47 | 52.75706 | -8.40320 | 7757 ft | 279 kts | 313° |
| 2026-05-06 18:47 | 52.77067 | -8.42594 | 7258 ft | 278 kts | 312° |
| 2026-05-06 18:47 | 52.78414 | -8.44840 | 6754 ft | 277 kts | 312° |
| 2026-05-06 18:47 | 52.79789 | -8.47136 | 5997 ft | 284 kts | 313° |
| 2026-05-06 18:48 | 52.81178 | -8.49466 | 5452 ft | 281 kts | 313° |
| 2026-05-06 18:48 | 52.82522 | -8.51713 | 5279 ft | 266 kts | 313° |
| 2026-05-06 18:48 | 52.83792 | -8.53836 | 5155 ft | 252 kts | 314° |
| 2026-05-06 18:48 | 52.84970 | -8.55836 | 5037 ft | 237 kts | 309° |
| 2026-05-06 18:49 | 52.85593 | -8.58166 | 4933 ft | 214 kts | 270° |
| 2026-05-06 18:49 | 52.85190 | -8.60416 | 4658 ft | 203 kts | 231° |
| 2026-05-06 18:49 | 52.84199 | -8.62028 | 4330 ft | 198 kts | 226° |
| 2026-05-06 18:49 | 52.83377 | -8.63793 | 4065 ft | 192 kts | 238° |
| 2026-05-06 18:50 | 52.82680 | -8.65624 | 3840 ft | 185 kts | 235° |
| 2026-05-06 18:50 | 52.81934 | -8.67339 | 3601 ft | 180 kts | 233° |
| 2026-05-06 18:50 | 52.81188 | -8.68973 | 3356 ft | 177 kts | 233° |
| 2026-05-06 18:50 | 52.80467 | -8.70530 | 3148 ft | 169 kts | 233° |
| 2026-05-06 18:51 | 52.79760 | -8.72051 | 2899 ft | 163 kts | 233° |
| 2026-05-06 18:51 | 52.79079 | -8.73511 | 2669 ft | 157 kts | 233° |
| 2026-05-06 18:51 | 52.78426 | -8.74910 | 2461 ft | 148 kts | 233° |
| 2026-05-06 18:51 | 52.77824 | -8.76200 | 2264 ft | 139 kts | 233° |
| 2026-05-06 18:52 | 52.77242 | -8.77446 | 2083 ft | 136 kts | 233° |
| 2026-05-06 18:52 | 52.76671 | -8.78668 | 1898 ft | 133 kts | 234° |
| 2026-05-06 18:52 | 52.76106 | -8.79876 | 1720 ft | 133 kts | 234° |
| 2026-05-06 18:52 | 52.75535 | -8.81097 | 1524 ft | 134 kts | 234° |
| 2026-05-06 18:53 | 52.74969 | -8.82307 | 1349 ft | 132 kts | 235° |
| 2026-05-06 18:53 | 52.74419 | -8.83479 | 1174 ft | 126 kts | 236° |
| 2026-05-06 18:53 | 52.73890 | -8.84608 | 1000 ft | 122 kts | 234° |
| 2026-05-06 18:53 | 52.73378 | -8.85708 | 864 ft | 120 kts | 233° |
| 2026-05-06 18:54 | 52.72874 | -8.86789 | 710 ft | 117 kts | 233° |
| 2026-05-06 18:54 | 52.72399 | -8.87869 | 429 ft | 114 kts | 232° |
| 2026-05-06 18:54 | 52.71905 | -8.88889 | 337 ft | 114 kts | 229° |
| 2026-05-06 18:54 | 52.71417 | -8.89913 | 217 ft | 115 kts | 231° |
| 2026-05-06 18:55 | 52.70885 | -8.91053 | 736 ft | 133 kts | 232° |
| 2026-05-06 18:55 | 52.70291 | -8.92308 | 1502 ft | 145 kts | 234° |
| 2026-05-06 18:55 | 52.69667 | -8.93646 | 2180 ft | 151 kts | 234° |
| 2026-05-06 18:55 | 52.69018 | -8.95112 | 2690 ft | 167 kts | 240° |
| 2026-05-06 18:56 | 52.68772 | -8.97082 | 3135 ft | 187 kts | 274° |
| 2026-05-06 18:56 | 52.69218 | -8.99124 | 3769 ft | 192 kts | 296° |
| 2026-05-06 18:56 | 52.69830 | -9.01081 | 4556 ft | 194 kts | 295° |
| 2026-05-06 18:56 | 52.70445 | -9.03076 | 5376 ft | 196 kts | 294° |
| 2026-05-06 18:57 | 52.71132 | -9.05061 | 6054 ft | 210 kts | 306° |
| 2026-05-06 18:57 | 52.72435 | -9.06419 | 6501 ft | 240 kts | 344° |
| 2026-05-06 18:57 | 52.74183 | -9.06138 | 7050 ft | 265 kts | 25° |
| 2026-05-06 18:57 | 52.75600 | -9.04121 | 7890 ft | 281 kts | 54° |
| 2026-05-06 18:58 | 52.76570 | -9.01273 | 8894 ft | 289 kts | 66° |
| 2026-05-06 18:58 | 52.77327 | -8.98143 | 9984 ft | 295 kts | 70° |
| 2026-05-06 18:58 | 52.78016 | -8.94982 | 10952 ft | 299 kts | 70° |
| 2026-05-06 18:58 | 52.78746 | -8.91715 | 11959 ft | 304 kts | 69° |
| 2026-05-06 18:59 | 52.79531 | -8.88425 | 12938 ft | 309 kts | 67° |
| 2026-05-06 18:59 | 52.80364 | -8.85119 | 13892 ft | 314 kts | 66° |
| 2026-05-06 18:59 | 52.81227 | -8.81819 | 14746 ft | 318 kts | 65° |
| 2026-05-06 18:59 | 52.82136 | -8.78429 | 15619 ft | 322 kts | 65° |
| 2026-05-06 19:00 | 52.83063 | -8.75019 | 16480 ft | 327 kts | 65° |
| 2026-05-06 19:00 | 52.84001 | -8.71558 | 17344 ft | 332 kts | 65° |
| 2026-05-06 19:00 | 52.84935 | -8.68096 | 18188 ft | 336 kts | 65° |
| 2026-05-06 19:00 | 52.85582 | -8.65689 | 18708 ft | 339 kts | 65° |
| 2026-05-06 19:01 | 52.86852 | -8.60935 | 19733 ft | 342 kts | 65° |
| 2026-05-06 19:01 | 52.87821 | -8.57304 | 20530 ft | 345 kts | 65° |
| 2026-05-06 19:01 | 52.88792 | -8.53659 | 21308 ft | 347 kts | 65° |
| 2026-05-06 19:01 | 52.89761 | -8.50023 | 22053 ft | 350 kts | 65° |
| 2026-05-06 19:02 | 52.90747 | -8.46314 | 22784 ft | 352 kts | 65° |
| 2026-05-06 19:02 | 52.91739 | -8.42576 | 23538 ft | 355 kts | 65° |
| 2026-05-06 19:02 | 52.92735 | -8.38808 | 24165 ft | 357 kts | 65° |
| 2026-05-06 19:02 | 52.93736 | -8.35012 | 24786 ft | 360 kts | 65° |
| 2026-05-06 19:03 | 52.94726 | -8.31248 | 25412 ft | 363 kts | 64° |
| 2026-05-06 19:03 | 52.95749 | -8.27360 | 26055 ft | 365 kts | 64° |
| 2026-05-06 19:03 | 52.96759 | -8.23519 | 26683 ft | 368 kts | 64° |
| 2026-05-06 19:03 | 52.97789 | -8.19587 | 27286 ft | 371 kts | 64° |
| 2026-05-06 19:04 | 52.98821 | -8.15640 | 27918 ft | 374 kts | 64° |
| 2026-05-06 19:04 | 52.99866 | -8.11647 | 28575 ft | 377 kts | 64° |
| 2026-05-06 19:04 | 53.00901 | -8.07692 | 29197 ft | 380 kts | 64° |
| 2026-05-06 19:04 | 53.01957 | -8.03647 | 29832 ft | 383 kts | 64° |
| 2026-05-06 19:05 | 53.03018 | -7.99568 | 30374 ft | 385 kts | 64° |
| 2026-05-06 19:05 | 53.04083 | -7.95459 | 30910 ft | 388 kts | 64° |
| 2026-05-06 19:05 | 53.05148 | -7.91339 | 31423 ft | 390 kts | 64° |
| 2026-05-06 19:05 | 53.06217 | -7.87192 | 31960 ft | 392 kts | 64° |
| 2026-05-06 19:06 | 53.07294 | -7.83007 | 32465 ft | 395 kts | 64° |
| 2026-05-06 19:06 | 53.08382 | -7.78787 | 32978 ft | 397 kts | 64° |
| 2026-05-06 19:06 | 53.09464 | -7.74589 | 33483 ft | 399 kts | 64° |
| 2026-05-06 19:06 | 53.10558 | -7.70319 | 33964 ft | 402 kts | 64° |
| 2026-05-06 19:07 | 53.11659 | -7.66009 | 34345 ft | 405 kts | 64° |
| 2026-05-06 19:07 | 53.12390 | -7.63143 | 34592 ft | 407 kts | 64° |
| 2026-05-06 19:07 | 53.13876 | -7.57332 | 35031 ft | 412 kts | 64° |
| 2026-05-06 19:07 | 53.15006 | -7.52909 | 35343 ft | 416 kts | 64° |
| 2026-05-06 19:08 | 53.16140 | -7.48451 | 35641 ft | 420 kts | 64° |
| 2026-05-06 19:08 | 53.17279 | -7.43958 | 35931 ft | 424 kts | 64° |
| 2026-05-06 19:08 | 53.18437 | -7.39381 | 36212 ft | 428 kts | 64° |
| 2026-05-06 19:08 | 53.19584 | -7.34819 | 36485 ft | 432 kts | 65° |
| 2026-05-06 19:09 | 53.20509 | -7.29944 | 36801 ft | 436 kts | 72° |
| 2026-05-06 19:09 | 53.21277 | -7.25116 | 37174 ft | 437 kts | 72° |
| 2026-05-06 19:09 | 53.22071 | -7.20182 | 37539 ft | 438 kts | 72° |
| 2026-05-06 19:09 | 53.22863 | -7.15273 | 37886 ft | 440 kts | 72° |
| 2026-05-06 19:10 | 53.23653 | -7.10380 | 38196 ft | 441 kts | 73° |
| 2026-05-06 19:10 | 53.24449 | -7.05415 | 38511 ft | 443 kts | 73° |
| 2026-05-06 19:10 | 53.25245 | -7.00419 | 38780 ft | 444 kts | 73° |
| 2026-05-06 19:10 | 53.26035 | -6.95429 | 38926 ft | 446 kts | 73° |
| 2026-05-06 19:11 | 53.26826 | -6.90409 | 38965 ft | 448 kts | 73° |
| 2026-05-06 19:11 | 53.28406 | -6.80362 | 38968 ft | 449 kts | 73° |
| 2026-05-06 19:12 | 53.29976 | -6.70253 | 38964 ft | 449 kts | 73° |
| 2026-05-06 19:12 | 53.31537 | -6.60130 | 38963 ft | 449 kts | 73° |
| 2026-05-06 19:13 | 53.33101 | -6.50026 | 38974 ft | 449 kts | 74° |
| 2026-05-06 19:13 | 53.34658 | -6.39856 | 38975 ft | 450 kts | 74° |
| 2026-05-06 19:14 | 53.36194 | -6.29752 | 38977 ft | 450 kts | 74° |
| 2026-05-06 19:14 | 53.37729 | -6.19588 | 38979 ft | 450 kts | 74° |
| 2026-05-06 19:15 | 53.39263 | -6.09421 | 38980 ft | 450 kts | 74° |
| 2026-05-06 19:15 | 53.40785 | -5.99271 | 38979 ft | 451 kts | 74° |
| 2026-05-06 19:16 | 53.42299 | -5.89090 | 38985 ft | 451 kts | 74° |
| 2026-05-06 19:16 | 53.43807 | -5.78852 | 38994 ft | 451 kts | 75° |
| 2026-05-06 19:17 | 53.45048 | -5.70340 | 39007 ft | 451 kts | 75° |
| 2026-05-06 19:17 | 53.46780 | -5.58406 | 39007 ft | 452 kts | 75° |
| 2026-05-06 19:18 | 53.47815 | -5.49768 | 39008 ft | 453 kts | 84° |
| 2026-05-06 19:18 | 53.47707 | -5.39179 | 39010 ft | 454 kts | 91° |
| 2026-05-06 19:19 | 53.47400 | -5.28613 | 39010 ft | 454 kts | 91° |
| 2026-05-06 19:19 | 53.47087 | -5.17986 | 39014 ft | 454 kts | 91° |
| 2026-05-06 19:20 | 53.46771 | -5.07433 | 39013 ft | 455 kts | 92° |
| 2026-05-06 19:20 | 53.46440 | -4.96820 | 39013 ft | 455 kts | 92° |
| 2026-05-06 19:21 | 53.46089 | -4.86190 | 39015 ft | 456 kts | 92° |
| 2026-05-06 19:21 | 53.45736 | -4.75539 | 39015 ft | 456 kts | 92° |
| 2026-05-06 19:22 | 53.45382 | -4.64972 | 39015 ft | 456 kts | 92° |
| 2026-05-06 19:22 | 53.45022 | -4.54390 | 39020 ft | 456 kts | 92° |
| 2026-05-06 19:23 | 53.44643 | -4.43763 | 39015 ft | 456 kts | 92° |
| 2026-05-06 19:23 | 53.44238 | -4.33078 | 39015 ft | 457 kts | 93° |
| 2026-05-06 19:24 | 53.43838 | -4.22507 | 39015 ft | 457 kts | 93° |
| 2026-05-06 19:24 | 53.43429 | -4.11842 | 39022 ft | 457 kts | 93° |
| 2026-05-06 19:25 | 53.43010 | -4.01196 | 39021 ft | 457 kts | 93° |
| 2026-05-06 19:25 | 53.42581 | -3.90551 | 39018 ft | 457 kts | 93° |
| 2026-05-06 19:26 | 53.42147 | -3.79975 | 39026 ft | 457 kts | 93° |
| 2026-05-06 19:26 | 53.41694 | -3.69311 | 39025 ft | 457 kts | 93° |
| 2026-05-06 19:27 | 53.41235 | -3.58650 | 39027 ft | 458 kts | 93° |
| 2026-05-06 19:27 | 53.40776 | -3.48048 | 39026 ft | 458 kts | 94° |
| 2026-05-06 19:28 | 53.40299 | -3.37387 | 39025 ft | 458 kts | 94° |
| 2026-05-06 19:28 | 53.39813 | -3.26788 | 39030 ft | 458 kts | 94° |
| 2026-05-06 19:29 | 53.39313 | -3.16109 | 39033 ft | 458 kts | 94° |
| 2026-05-06 19:29 | 53.38847 | -3.05497 | 39040 ft | 458 kts | 93° |
| 2026-05-06 19:30 | 53.38471 | -2.94861 | 39036 ft | 458 kts | 92° |
| 2026-05-06 19:30 | 53.38096 | -2.84148 | 39036 ft | 459 kts | 93° |
| 2026-05-06 19:31 | 53.37690 | -2.73583 | 39039 ft | 459 kts | 93° |
| 2026-05-06 19:31 | 53.37029 | -2.57609 | 39058 ft | 459 kts | 93° |
| 2026-05-06 19:32 | 53.36583 | -2.46887 | 39068 ft | 459 kts | 93° |
| 2026-05-06 19:32 | 53.36128 | -2.36255 | 39073 ft | 459 kts | 94° |
| 2026-05-06 19:33 | 53.35639 | -2.25764 | 39067 ft | 459 kts | 97° |
| 2026-05-06 19:33 | 53.34587 | -2.15244 | 39072 ft | 460 kts | 99° |
| 2026-05-06 19:34 | 53.33496 | -2.04684 | 39070 ft | 460 kts | 99° |
| 2026-05-06 19:34 | 53.32400 | -1.94139 | 39063 ft | 460 kts | 99° |
| 2026-05-06 19:35 | 53.31299 | -1.83656 | 39061 ft | 460 kts | 99° |
| 2026-05-06 19:35 | 53.30179 | -1.73070 | 39064 ft | 460 kts | 100° |
| 2026-05-06 19:36 | 53.29057 | -1.62563 | 39072 ft | 460 kts | 100° |
| 2026-05-06 19:36 | 53.27928 | -1.52020 | 39070 ft | 460 kts | 100° |
| 2026-05-06 19:37 | 53.26797 | -1.41522 | 39074 ft | 461 kts | 100° |
| 2026-05-06 19:37 | 53.25646 | -1.30949 | 39073 ft | 461 kts | 100° |
| 2026-05-06 19:38 | 53.24486 | -1.20454 | 39056 ft | 461 kts | 100° |
| 2026-05-06 19:38 | 53.23308 | -1.09919 | 39063 ft | 461 kts | 100° |
| 2026-05-06 19:39 | 53.22128 | -0.99381 | 39077 ft | 461 kts | 101° |
| 2026-05-06 19:39 | 53.20948 | -0.88925 | 39072 ft | 460 kts | 101° |
| 2026-05-06 19:40 | 53.19746 | -0.78424 | 39072 ft | 460 kts | 101° |
| 2026-05-06 19:40 | 53.18539 | -0.67972 | 39072 ft | 460 kts | 101° |
| 2026-05-06 19:41 | 53.17326 | -0.57482 | 39071 ft | 460 kts | 101° |
| 2026-05-06 19:41 | 53.16109 | -0.47056 | 39072 ft | 460 kts | 101° |
| 2026-05-06 19:42 | 53.14872 | -0.36563 | 39074 ft | 460 kts | 101° |
| 2026-05-06 19:42 | 53.13625 | -0.26103 | 39073 ft | 460 kts | 101° |
| 2026-05-06 19:43 | 53.12380 | -0.15709 | 39073 ft | 460 kts | 101° |
| 2026-05-06 19:43 | 53.11116 | -0.05221 | 39072 ft | 460 kts | 101° |
| 2026-05-06 19:44 | 53.09852 | 0.05203 | 39070 ft | 460 kts | 102° |
| 2026-05-06 19:44 | 53.08580 | 0.15601 | 39070 ft | 460 kts | 102° |
| 2026-05-06 19:45 | 53.07289 | 0.26047 | 39068 ft | 460 kts | 102° |
| 2026-05-06 19:45 | 53.05996 | 0.36429 | 39067 ft | 460 kts | 102° |
| 2026-05-06 19:46 | 53.04683 | 0.46878 | 39061 ft | 460 kts | 102° |
| 2026-05-06 19:46 | 53.03371 | 0.57279 | 39059 ft | 461 kts | 102° |
| 2026-05-06 19:47 | 53.02042 | 0.67740 | 39057 ft | 461 kts | 102° |
| 2026-05-06 19:47 | 53.00706 | 0.78103 | 39056 ft | 462 kts | 102° |
| 2026-05-06 19:48 | 52.99356 | 0.88513 | 39056 ft | 462 kts | 102° |
| 2026-05-06 19:48 | 52.97998 | 0.98936 | 39057 ft | 461 kts | 102° |
| 2026-05-06 19:49 | 52.96711 | 1.09389 | 39057 ft | 461 kts | 101° |
| 2026-05-06 19:49 | 52.95537 | 1.19884 | 39059 ft | 461 kts | 101° |
| 2026-05-06 19:50 | 52.94367 | 1.30336 | 39055 ft | 461 kts | 101° |
| 2026-05-06 19:50 | 52.93151 | 1.40729 | 39058 ft | 461 kts | 102° |
| 2026-05-06 19:51 | 52.91911 | 1.51150 | 39055 ft | 461 kts | 102° |
| 2026-05-06 19:51 | 52.90659 | 1.61612 | 39054 ft | 461 kts | 102° |
| 2026-05-06 19:52 | 52.89406 | 1.71987 | 39050 ft | 461 kts | 102° |
| 2026-05-06 19:52 | 52.88147 | 1.82388 | 39050 ft | 461 kts | 102° |
| 2026-05-06 19:53 | 52.86885 | 1.92753 | 39051 ft | 461 kts | 102° |
| 2026-05-06 19:53 | 52.85602 | 2.03192 | 39042 ft | 461 kts | 102° |
| 2026-05-06 19:54 | 52.84322 | 2.13524 | 39044 ft | 461 kts | 103° |
| 2026-05-06 19:54 | 52.83013 | 2.23953 | 39041 ft | 461 kts | 103° |
| 2026-05-06 19:55 | 52.81701 | 2.34339 | 39040 ft | 461 kts | 103° |
| 2026-05-06 19:55 | 52.80392 | 2.44693 | 39039 ft | 461 kts | 103° |
| 2026-05-06 19:56 | 52.79069 | 2.55074 | 39035 ft | 461 kts | 103° |
| 2026-05-06 19:56 | 52.77742 | 2.65384 | 39038 ft | 461 kts | 103° |
| 2026-05-06 19:57 | 52.76385 | 2.75806 | 39041 ft | 460 kts | 103° |
| 2026-05-06 19:57 | 52.75042 | 2.86053 | 39038 ft | 460 kts | 103° |
| 2026-05-06 19:58 | 52.73839 | 2.96403 | 39036 ft | 461 kts | 96° |
| 2026-05-06 19:58 | 52.74296 | 3.06963 | 39019 ft | 462 kts | 77° |
| 2026-05-06 19:59 | 52.75711 | 3.17293 | 39015 ft | 463 kts | 78° |
| 2026-05-06 19:59 | 52.77095 | 3.27656 | 39009 ft | 463 kts | 78° |
| 2026-05-06 20:00 | 52.78471 | 3.38084 | 39010 ft | 464 kts | 78° |
| 2026-05-06 20:00 | 52.79609 | 3.46761 | 39011 ft | 464 kts | 78° |
| 2026-05-06 20:01 | 52.80971 | 3.57200 | 39007 ft | 464 kts | 78° |
| 2026-05-06 20:01 | 52.82319 | 3.67601 | 39010 ft | 464 kts | 78° |
| 2026-05-06 20:02 | 52.83669 | 3.78057 | 39012 ft | 465 kts | 78° |
| 2026-05-06 20:02 | 52.85007 | 3.88480 | 39014 ft | 465 kts | 78° |
| 2026-05-06 20:03 | 52.86337 | 3.98968 | 39016 ft | 465 kts | 78° |
| 2026-05-06 20:03 | 52.87663 | 4.09465 | 39009 ft | 465 kts | 78° |
| 2026-05-06 20:04 | 52.88975 | 4.19920 | 39016 ft | 465 kts | 79° |
| 2026-05-06 20:04 | 52.90275 | 4.30408 | 39013 ft | 465 kts | 79° |
| 2026-05-06 20:05 | 52.91571 | 4.40929 | 39013 ft | 464 kts | 79° |
| 2026-05-06 20:05 | 52.92851 | 4.51384 | 39016 ft | 464 kts | 79° |
| 2026-05-06 20:06 | 52.94129 | 4.61887 | 39011 ft | 465 kts | 79° |
| 2026-05-06 20:06 | 52.95396 | 4.72372 | 38992 ft | 465 kts | 79° |
| 2026-05-06 20:07 | 52.96650 | 4.82909 | 39020 ft | 465 kts | 79° |
| 2026-05-06 20:07 | 52.97897 | 4.93479 | 39018 ft | 465 kts | 79° |
| 2026-05-06 20:08 | 52.99126 | 5.03954 | 39013 ft | 465 kts | 79° |
| 2026-05-06 20:08 | 53.00365 | 5.14542 | 39003 ft | 465 kts | 79° |
| 2026-05-06 20:09 | 53.01585 | 5.25107 | 39003 ft | 465 kts | 79° |
| 2026-05-06 20:09 | 53.02787 | 5.35599 | 38996 ft | 465 kts | 79° |
| 2026-05-06 20:10 | 53.04844 | 5.45773 | 39000 ft | 465 kts | 68° |
| 2026-05-06 20:10 | 53.07286 | 5.55773 | 38995 ft | 466 kts | 68° |
| 2026-05-06 20:11 | 53.09687 | 5.65727 | 38987 ft | 465 kts | 68° |
| 2026-05-06 20:11 | 53.12096 | 5.75748 | 39000 ft | 465 kts | 68° |
| 2026-05-06 20:12 | 53.14490 | 5.85707 | 38995 ft | 465 kts | 68° |
| 2026-05-06 20:12 | 53.16877 | 5.95733 | 38991 ft | 465 kts | 68° |
| 2026-05-06 20:13 | 53.19260 | 6.05768 | 38990 ft | 465 kts | 69° |
| 2026-05-06 20:13 | 53.21644 | 6.15846 | 38978 ft | 465 kts | 69° |
| 2026-05-06 20:14 | 53.24005 | 6.25859 | 38977 ft | 465 kts | 69° |
| 2026-05-06 20:14 | 53.26377 | 6.35962 | 38974 ft | 465 kts | 69° |
| 2026-05-06 20:15 | 53.28709 | 6.45996 | 38981 ft | 465 kts | 69° |
| 2026-05-06 20:15 | 53.31041 | 6.56092 | 38982 ft | 465 kts | 69° |
| 2026-05-06 20:16 | 53.33378 | 6.66190 | 38984 ft | 465 kts | 69° |
| 2026-05-06 20:16 | 53.35711 | 6.76327 | 38975 ft | 465 kts | 69° |
| 2026-05-06 20:17 | 53.38011 | 6.86416 | 38938 ft | 466 kts | 69° |
| 2026-05-06 20:17 | 53.39180 | 6.91557 | 38040 ft | 476 kts | 69° |
| 2026-05-06 20:17 | 53.40364 | 6.96777 | 37348 ft | 478 kts | 69° |
| 2026-05-06 20:18 | 53.41533 | 7.01936 | 36626 ft | 478 kts | 69° |
| 2026-05-06 20:18 | 53.42715 | 7.07171 | 35752 ft | 481 kts | 70° |
| 2026-05-06 20:18 | 53.43886 | 7.12376 | 35267 ft | 470 kts | 70° |
| 2026-05-06 20:18 | 53.45026 | 7.17447 | 34713 ft | 462 kts | 69° |
| 2026-05-06 20:19 | 53.46150 | 7.22453 | 34182 ft | 455 kts | 70° |
| 2026-05-06 20:19 | 53.47260 | 7.27411 | 33590 ft | 448 kts | 70° |
| 2026-05-06 20:19 | 53.48343 | 7.32271 | 33065 ft | 440 kts | 70° |
| 2026-05-06 20:19 | 53.49396 | 7.37003 | 32893 ft | 432 kts | 70° |
| 2026-05-06 20:20 | 53.50440 | 7.41700 | 32020 ft | 425 kts | 70° |
| 2026-05-06 20:20 | 53.51473 | 7.46336 | 31496 ft | 418 kts | 70° |
| 2026-05-06 20:20 | 53.52482 | 7.50876 | 31001 ft | 412 kts | 70° |
| 2026-05-06 20:20 | 53.53473 | 7.55357 | 30518 ft | 407 kts | 70° |
| 2026-05-06 20:21 | 53.54456 | 7.59803 | 30031 ft | 402 kts | 71° |
| 2026-05-06 20:21 | 53.55422 | 7.64201 | 29510 ft | 398 kts | 71° |
| 2026-05-06 20:21 | 53.56362 | 7.68495 | 29067 ft | 392 kts | 71° |
| 2026-05-06 20:21 | 53.57296 | 7.72772 | 28613 ft | 386 kts | 71° |
| 2026-05-06 20:22 | 53.58207 | 7.76950 | 28189 ft | 381 kts | 70° |
| 2026-05-06 20:22 | 53.59121 | 7.81142 | 27751 ft | 379 kts | 71° |
| 2026-05-06 20:22 | 53.60027 | 7.85298 | 27350 ft | 379 kts | 71° |
| 2026-05-06 20:22 | 53.60934 | 7.89464 | 26944 ft | 377 kts | 71° |
| 2026-05-06 20:23 | 53.61823 | 7.93562 | 26530 ft | 375 kts | 71° |
| 2026-05-06 20:23 | 53.62715 | 7.97687 | 26133 ft | 372 kts | 71° |
| 2026-05-06 20:23 | 53.63595 | 8.01795 | 25725 ft | 370 kts | 71° |
| 2026-05-06 20:23 | 53.64423 | 8.05905 | 25319 ft | 368 kts | 72° |
| 2026-05-06 20:24 | 53.65209 | 8.10011 | 24908 ft | 366 kts | 73° |
| 2026-05-06 20:24 | 53.65974 | 8.14097 | 24484 ft | 365 kts | 73° |
| 2026-05-06 20:24 | 53.66725 | 8.18134 | 24064 ft | 363 kts | 72° |
| 2026-05-06 20:24 | 53.67484 | 8.22197 | 23633 ft | 363 kts | 72° |
| 2026-05-06 20:25 | 53.68248 | 8.26260 | 23145 ft | 362 kts | 72° |
| 2026-05-06 20:25 | 53.69015 | 8.30300 | 22701 ft | 359 kts | 72° |
| 2026-05-06 20:25 | 53.69775 | 8.34295 | 22255 ft | 356 kts | 72° |
| 2026-05-06 20:25 | 53.70517 | 8.38221 | 21820 ft | 353 kts | 72° |
| 2026-05-06 20:26 | 53.71258 | 8.42163 | 21372 ft | 351 kts | 72° |
| 2026-05-06 20:26 | 53.71994 | 8.46090 | 20934 ft | 349 kts | 72° |
| 2026-05-06 20:26 | 53.72725 | 8.49980 | 20492 ft | 347 kts | 72° |
| 2026-05-06 20:26 | 53.73445 | 8.53818 | 20061 ft | 345 kts | 72° |
| 2026-05-06 20:27 | 53.74173 | 8.57714 | 19626 ft | 343 kts | 72° |
| 2026-05-06 20:27 | 53.74885 | 8.61521 | 19185 ft | 341 kts | 72° |
| 2026-05-06 20:27 | 53.75600 | 8.65356 | 18745 ft | 340 kts | 72° |
| 2026-05-06 20:27 | 53.76303 | 8.69144 | 18318 ft | 338 kts | 73° |
| 2026-05-06 20:28 | 53.77004 | 8.72940 | 17843 ft | 336 kts | 73° |
| 2026-05-06 20:28 | 53.77689 | 8.76652 | 17394 ft | 333 kts | 72° |
| 2026-05-06 20:28 | 53.78375 | 8.80374 | 16985 ft | 330 kts | 72° |
| 2026-05-06 20:28 | 53.79042 | 8.84070 | 16560 ft | 329 kts | 75° |
| 2026-05-06 20:29 | 53.79193 | 8.87932 | 16142 ft | 332 kts | 98° |
| 2026-05-06 20:29 | 53.78434 | 8.91590 | 15703 ft | 329 kts | 122° |
| 2026-05-06 20:29 | 53.76999 | 8.94585 | 15277 ft | 329 kts | 133° |
| 2026-05-06 20:29 | 53.75432 | 8.97408 | 14835 ft | 327 kts | 134° |
| 2026-05-06 20:30 | 53.73869 | 9.00181 | 14421 ft | 326 kts | 134° |
| 2026-05-06 20:30 | 53.70749 | 9.05653 | 13575 ft | 322 kts | 134° |
| 2026-05-06 20:30 | 53.69188 | 9.08366 | 13078 ft | 321 kts | 134° |
| 2026-05-06 20:31 | 53.67630 | 9.11062 | 12604 ft | 319 kts | 134° |
| 2026-05-06 20:31 | 53.66105 | 9.13694 | 12144 ft | 315 kts | 134° |
| 2026-05-06 20:31 | 53.64579 | 9.16320 | 11672 ft | 312 kts | 134° |
| 2026-05-06 20:31 | 53.63056 | 9.18900 | 11211 ft | 308 kts | 134° |
| 2026-05-06 20:32 | 53.61547 | 9.21442 | 10765 ft | 304 kts | 134° |
| 2026-05-06 20:32 | 53.60063 | 9.23931 | 10321 ft | 301 kts | 134° |
| 2026-05-06 20:32 | 53.58586 | 9.26373 | 9882 ft | 295 kts | 134° |
| 2026-05-06 20:32 | 53.57121 | 9.28782 | 9359 ft | 291 kts | 134° |
| 2026-05-06 20:33 | 53.55697 | 9.31122 | 8846 ft | 288 kts | 134° |
| 2026-05-06 20:33 | 53.54260 | 9.33467 | 8316 ft | 285 kts | 134° |
| 2026-05-06 20:33 | 53.52839 | 9.35782 | 7808 ft | 283 kts | 134° |
| 2026-05-06 20:33 | 53.51425 | 9.38064 | 7301 ft | 280 kts | 134° |
| 2026-05-06 20:34 | 53.50030 | 9.40313 | 6841 ft | 272 kts | 134° |
| 2026-05-06 20:34 | 53.48689 | 9.42458 | 6492 ft | 261 kts | 134° |
| 2026-05-06 20:34 | 53.47410 | 9.44493 | 6193 ft | 249 kts | 134° |
| 2026-05-06 20:34 | 53.46170 | 9.46453 | 5872 ft | 241 kts | 134° |
| 2026-05-06 20:35 | 53.44958 | 9.48365 | 5560 ft | 237 kts | 132° |
| 2026-05-06 20:35 | 53.44103 | 9.50639 | 5254 ft | 229 kts | 102° |
| 2026-05-06 20:35 | 53.43986 | 9.53277 | 4896 ft | 224 kts | 86° |
| 2026-05-06 20:35 | 53.44063 | 9.55851 | 4513 ft | 222 kts | 84° |
| 2026-05-06 20:36 | 53.44163 | 9.58423 | 4122 ft | 220 kts | 84° |
| 2026-05-06 20:36 | 53.44414 | 9.60933 | 3729 ft | 217 kts | 68° |
| 2026-05-06 20:36 | 53.45199 | 9.63030 | 3357 ft | 215 kts | 50° |
| 2026-05-06 20:36 | 53.46169 | 9.64951 | 3035 ft | 213 kts | 50° |
| 2026-05-06 20:37 | 53.47132 | 9.66865 | 3005 ft | 214 kts | 50° |
| 2026-05-06 20:37 | 53.48045 | 9.68688 | 3000 ft | 194 kts | 50° |
| 2026-05-06 20:37 | 53.48866 | 9.70327 | 3004 ft | 173 kts | 51° |
| 2026-05-06 20:37 | 53.49623 | 9.71842 | 3005 ft | 165 kts | 51° |
| 2026-05-06 20:38 | 53.50355 | 9.73306 | 3008 ft | 162 kts | 50° |
| 2026-05-06 20:38 | 53.51062 | 9.74723 | 3043 ft | 150 kts | 51° |
| 2026-05-06 20:38 | 53.51701 | 9.76001 | 3006 ft | 134 kts | 51° |
| 2026-05-06 20:38 | 53.52285 | 9.77173 | 2985 ft | 140 kts | 51° |
| 2026-05-06 20:39 | 53.52968 | 9.78544 | 2851 ft | 156 kts | 51° |
| 2026-05-06 20:39 | 53.53634 | 9.79880 | 2660 ft | 144 kts | 51° |
| 2026-05-06 20:39 | 53.54256 | 9.81127 | 2485 ft | 133 kts | 51° |
| 2026-05-06 20:39 | 53.54838 | 9.82297 | 2304 ft | 129 kts | 51° |
| 2026-05-06 20:40 | 53.55409 | 9.83442 | 2132 ft | 126 kts | 51° |
| 2026-05-06 20:40 | 53.55969 | 9.84570 | 1959 ft | 124 kts | 52° |
| 2026-05-06 20:40 | 53.56490 | 9.85615 | 1799 ft | 112 kts | 52° |
| 2026-05-06 20:40 | 53.56977 | 9.86596 | 1651 ft | 107 kts | 52° |
| 2026-05-06 20:41 | 53.57450 | 9.87548 | 1501 ft | 105 kts | 53° |
| 2026-05-06 20:41 | 53.57919 | 9.88492 | 1355 ft | 105 kts | 52° |
| 2026-05-06 20:41 | 53.58391 | 9.89442 | 1208 ft | 106 kts | 51° |
| 2026-05-06 20:41 | 53.58865 | 9.90401 | 1043 ft | 107 kts | 50° |
| 2026-05-06 20:42 | 53.59345 | 9.91374 | 867 ft | 108 kts | 50° |
| 2026-05-06 20:42 | 53.59807 | 9.92339 | 702 ft | 108 kts | 49° |
| 2026-05-06 20:42 | 53.60297 | 9.93324 | 555 ft | 110 kts | 50° |
| 2026-05-06 20:42 | 53.60793 | 9.94309 | 419 ft | 113 kts | 49° |
| 2026-05-06 20:43 | 53.61303 | 9.95313 | 253 ft | 113 kts | 50° |
| 2026-05-06 20:43 | 53.61820 | 9.96372 | 426 ft | 128 kts | 50° |
| 2026-05-06 20:43 | 53.62382 | 9.97572 | 1289 ft | 134 kts | 52° |
| 2026-05-06 20:43 | 53.62968 | 9.98839 | 2266 ft | 134 kts | 54° |
| 2026-05-06 20:44 | 53.63564 | 10.00094 | 2915 ft | 146 kts | 52° |
| 2026-05-06 20:44 | 53.64010 | 10.01023 | 3240 ft | 161 kts | 52° |
| 2026-05-06 20:44 | 53.64763 | 10.02553 | 3630 ft | 176 kts | 51° |
| 2026-05-06 20:44 | 53.65867 | 10.04740 | 3815 ft | 198 kts | 50° |
| 2026-05-06 20:45 | 53.66475 | 10.05947 | 4248 ft | 209 kts | 50° |
| 2026-05-06 20:45 | 53.67432 | 10.07857 | 5281 ft | 213 kts | 50° |
| 2026-05-06 20:45 | 53.68561 | 10.09484 | 6377 ft | 218 kts | 27° |
| 2026-05-06 20:45 | 53.70052 | 10.10003 | 7396 ft | 226 kts | 358° |
| 2026-05-06 20:46 | 53.71613 | 10.09197 | 8278 ft | 251 kts | 330° |
| 2026-05-06 20:46 | 53.72825 | 10.06889 | 9012 ft | 279 kts | 294° |
| 2026-05-06 20:46 | 53.73119 | 10.03616 | 9716 ft | 295 kts | 263° |
| 2026-05-06 20:46 | 53.72295 | 10.00375 | 10386 ft | 315 kts | 231° |
| 2026-05-06 20:47 | 53.70557 | 9.97966 | 11174 ft | 328 kts | 210° |
| 2026-05-06 20:47 | 53.68522 | 9.96286 | 12221 ft | 331 kts | 204° |
| 2026-05-06 20:47 | 53.66394 | 9.94658 | 13311 ft | 334 kts | 204° |
| 2026-05-06 20:47 | 53.64278 | 9.93072 | 14269 ft | 338 kts | 205° |
| 2026-05-06 20:48 | 53.62109 | 9.91457 | 15201 ft | 341 kts | 205° |
| 2026-05-06 20:48 | 53.59932 | 9.89833 | 16144 ft | 344 kts | 205° |
| 2026-05-06 20:48 | 53.57737 | 9.88190 | 17047 ft | 348 kts | 205° |
| 2026-05-06 20:48 | 53.55510 | 9.86523 | 17952 ft | 352 kts | 205° |
| 2026-05-06 20:49 | 53.53261 | 9.84838 | 18765 ft | 356 kts | 205° |
| 2026-05-06 20:49 | 53.50999 | 9.83145 | 19531 ft | 360 kts | 205° |
| 2026-05-06 20:49 | 53.48702 | 9.81424 | 20311 ft | 364 kts | 205° |
| 2026-05-06 20:49 | 53.46373 | 9.79683 | 21073 ft | 368 kts | 205° |
| 2026-05-06 20:50 | 53.44000 | 9.77915 | 21833 ft | 372 kts | 205° |
| 2026-05-06 20:50 | 53.41627 | 9.76146 | 22561 ft | 377 kts | 205° |
| 2026-05-06 20:50 | 53.39215 | 9.74346 | 23302 ft | 381 kts | 205° |
| 2026-05-06 20:50 | 53.36796 | 9.72545 | 23957 ft | 385 kts | 205° |
| 2026-05-06 20:51 | 53.34327 | 9.70715 | 24583 ft | 388 kts | 205° |
| 2026-05-06 20:51 | 53.31837 | 9.68871 | 25214 ft | 392 kts | 205° |
| 2026-05-06 20:51 | 53.29341 | 9.67024 | 25851 ft | 395 kts | 205° |
| 2026-05-06 20:51 | 53.26825 | 9.65161 | 26480 ft | 398 kts | 205° |
| 2026-05-06 20:52 | 53.24294 | 9.63294 | 27104 ft | 401 kts | 205° |
| 2026-05-06 20:52 | 53.21725 | 9.61404 | 27720 ft | 404 kts | 205° |
| 2026-05-06 20:52 | 53.19138 | 9.59499 | 28329 ft | 407 kts | 205° |
| 2026-05-06 20:52 | 53.16573 | 9.57610 | 28931 ft | 410 kts | 205° |
| 2026-05-06 20:53 | 53.13948 | 9.55677 | 29531 ft | 413 kts | 205° |
| 2026-05-06 20:53 | 53.11304 | 9.53736 | 30114 ft | 416 kts | 204° |
| 2026-05-06 20:53 | 53.08628 | 9.51777 | 30616 ft | 419 kts | 205° |
| 2026-05-06 20:53 | 53.05955 | 9.49827 | 31108 ft | 422 kts | 205° |
| 2026-05-06 20:54 | 53.03254 | 9.47860 | 31595 ft | 424 kts | 205° |
| 2026-05-06 20:54 | 53.00551 | 9.45978 | 32225 ft | 423 kts | 201° |
| 2026-05-06 20:54 | 52.97699 | 9.44712 | 32917 ft | 422 kts | 192° |
| 2026-05-06 20:54 | 52.94794 | 9.44055 | 33615 ft | 421 kts | 189° |
| 2026-05-06 20:55 | 52.91898 | 9.43441 | 34254 ft | 418 kts | 189° |
| 2026-05-06 20:55 | 52.89044 | 9.42829 | 34704 ft | 419 kts | 189° |
| 2026-05-06 20:55 | 52.86148 | 9.42204 | 34842 ft | 418 kts | 189° |
| 2026-05-06 20:55 | 52.83288 | 9.41591 | 34887 ft | 406 kts | 189° |
| 2026-05-06 20:56 | 52.80519 | 9.41004 | 34892 ft | 398 kts | 189° |
| 2026-05-06 20:56 | 52.75080 | 9.39856 | 34878 ft | 394 kts | 189° |
| 2026-05-06 20:57 | 52.69634 | 9.38698 | 34885 ft | 394 kts | 189° |
| 2026-05-06 20:57 | 52.64214 | 9.37557 | 34889 ft | 394 kts | 189° |
| 2026-05-06 20:58 | 52.58784 | 9.36321 | 34873 ft | 393 kts | 191° |
| 2026-05-06 20:58 | 52.53378 | 9.34859 | 34873 ft | 392 kts | 192° |
| 2026-05-06 20:59 | 52.48023 | 9.33389 | 34873 ft | 392 kts | 191° |
| 2026-05-06 20:59 | 52.42630 | 9.31969 | 34882 ft | 392 kts | 191° |
| 2026-05-06 21:00 | 52.37265 | 9.30583 | 34868 ft | 392 kts | 191° |
| 2026-05-06 21:00 | 52.31869 | 9.29187 | 34873 ft | 392 kts | 191° |
| 2026-05-06 21:01 | 52.26482 | 9.27775 | 34879 ft | 391 kts | 191° |
| 2026-05-06 21:01 | 52.21125 | 9.26432 | 34879 ft | 392 kts | 189° |
| 2026-05-06 21:02 | 52.15693 | 9.25430 | 34870 ft | 392 kts | 187° |
| 2026-05-06 21:02 | 52.10255 | 9.24549 | 34874 ft | 391 kts | 188° |
| 2026-05-06 21:03 | 52.04866 | 9.23609 | 34872 ft | 391 kts | 189° |
| 2026-05-06 21:03 | 51.99497 | 9.22314 | 34857 ft | 390 kts | 191° |
| 2026-05-06 21:04 | 51.94142 | 9.20803 | 34855 ft | 389 kts | 192° |
| 2026-05-06 21:04 | 51.88791 | 9.19344 | 34845 ft | 389 kts | 191° |
| 2026-05-06 21:05 | 51.83442 | 9.18086 | 34835 ft | 390 kts | 189° |
| 2026-05-06 21:05 | 51.78060 | 9.16976 | 34603 ft | 390 kts | 189° |
| 2026-05-06 21:05 | 51.75384 | 9.16429 | 34141 ft | 390 kts | 189° |
| 2026-05-06 21:06 | 51.72701 | 9.15866 | 33641 ft | 388 kts | 189° |
| 2026-05-06 21:06 | 51.70024 | 9.15291 | 33151 ft | 385 kts | 189° |
| 2026-05-06 21:06 | 51.67369 | 9.14715 | 32657 ft | 381 kts | 189° |
| 2026-05-06 21:06 | 51.64777 | 9.14152 | 32186 ft | 378 kts | 189° |
| 2026-05-06 21:07 | 51.62147 | 9.13584 | 31707 ft | 375 kts | 189° |
| 2026-05-06 21:07 | 51.59594 | 9.13034 | 31245 ft | 373 kts | 189° |
| 2026-05-06 21:07 | 51.57032 | 9.12480 | 30787 ft | 370 kts | 190° |
| 2026-05-06 21:07 | 51.54553 | 9.11456 | 30333 ft | 366 kts | 202° |
| 2026-05-06 21:08 | 51.52288 | 9.09601 | 29872 ft | 363 kts | 214° |
| 2026-05-06 21:08 | 51.50367 | 9.07058 | 29379 ft | 360 kts | 226° |
| 2026-05-06 21:08 | 51.48821 | 9.03932 | 28949 ft | 358 kts | 237° |
| 2026-05-06 21:08 | 51.47700 | 9.00363 | 28523 ft | 356 kts | 246° |
| 2026-05-06 21:09 | 51.46730 | 8.96716 | 28091 ft | 353 kts | 245° |
| 2026-05-06 21:09 | 51.45759 | 8.93099 | 27678 ft | 350 kts | 245° |
| 2026-05-06 21:09 | 51.44808 | 8.89583 | 27275 ft | 347 kts | 245° |
| 2026-05-06 21:09 | 51.43852 | 8.86062 | 26863 ft | 344 kts | 245° |
| 2026-05-06 21:10 | 51.42897 | 8.82550 | 26469 ft | 340 kts | 245° |
| 2026-05-06 21:10 | 51.41954 | 8.79086 | 26083 ft | 337 kts | 245° |
| 2026-05-06 21:10 | 51.41007 | 8.75670 | 25660 ft | 334 kts | 242° |
| 2026-05-06 21:10 | 51.39870 | 8.72441 | 25261 ft | 331 kts | 239° |
| 2026-05-06 21:11 | 51.38719 | 8.69268 | 24845 ft | 329 kts | 239° |
| 2026-05-06 21:11 | 51.37584 | 8.66137 | 24431 ft | 327 kts | 239° |
| 2026-05-06 21:11 | 51.36445 | 8.63000 | 24021 ft | 326 kts | 239° |
| 2026-05-06 21:11 | 51.35305 | 8.59858 | 23583 ft | 326 kts | 240° |
| 2026-05-06 21:12 | 51.34175 | 8.56730 | 23104 ft | 325 kts | 240° |
| 2026-05-06 21:12 | 51.33037 | 8.53590 | 22637 ft | 323 kts | 240° |
| 2026-05-06 21:12 | 51.31910 | 8.50484 | 22203 ft | 321 kts | 240° |
| 2026-05-06 21:12 | 51.30786 | 8.47401 | 21754 ft | 320 kts | 240° |
| 2026-05-06 21:13 | 51.29680 | 8.44375 | 21319 ft | 318 kts | 240° |
| 2026-05-06 21:13 | 51.28565 | 8.41316 | 20894 ft | 317 kts | 240° |
| 2026-05-06 21:13 | 51.27454 | 8.38261 | 20433 ft | 316 kts | 240° |
| 2026-05-06 21:13 | 51.26365 | 8.35260 | 20011 ft | 315 kts | 240° |
| 2026-05-06 21:14 | 51.25271 | 8.32233 | 19579 ft | 314 kts | 240° |
| 2026-05-06 21:14 | 51.24177 | 8.29207 | 19132 ft | 314 kts | 240° |
| 2026-05-06 21:14 | 51.23081 | 8.26188 | 18685 ft | 314 kts | 240° |
| 2026-05-06 21:14 | 51.21985 | 8.23170 | 18256 ft | 313 kts | 240° |
| 2026-05-06 21:15 | 51.20888 | 8.20153 | 17780 ft | 312 kts | 240° |
| 2026-05-06 21:15 | 51.19816 | 8.17216 | 17340 ft | 310 kts | 240° |
| 2026-05-06 21:15 | 51.18727 | 8.14242 | 16900 ft | 308 kts | 240° |
| 2026-05-06 21:15 | 51.17650 | 8.11307 | 16471 ft | 306 kts | 240° |
| 2026-05-06 21:16 | 51.16586 | 8.08416 | 16053 ft | 304 kts | 240° |
| 2026-05-06 21:16 | 51.15514 | 8.05496 | 15623 ft | 303 kts | 240° |
| 2026-05-06 21:16 | 51.14452 | 8.02599 | 15201 ft | 303 kts | 241° |
| 2026-05-06 21:16 | 51.13393 | 7.99709 | 14772 ft | 302 kts | 240° |
| 2026-05-06 21:17 | 51.12329 | 7.96812 | 14364 ft | 302 kts | 240° |
| 2026-05-06 21:17 | 51.11271 | 7.93935 | 13946 ft | 302 kts | 241° |
| 2026-05-06 21:17 | 51.10207 | 7.91046 | 13505 ft | 302 kts | 241° |
| 2026-05-06 21:17 | 51.09158 | 7.88208 | 13074 ft | 301 kts | 241° |
| 2026-05-06 21:18 | 51.08097 | 7.85338 | 12646 ft | 299 kts | 241° |
| 2026-05-06 21:18 | 51.06949 | 7.82579 | 12214 ft | 298 kts | 232° |
| 2026-05-06 21:18 | 51.05450 | 7.80297 | 11810 ft | 298 kts | 218° |
| 2026-05-06 21:18 | 51.03685 | 7.78594 | 11396 ft | 298 kts | 209° |
| 2026-05-06 21:19 | 51.01872 | 7.77048 | 10978 ft | 294 kts | 209° |
| 2026-05-06 21:19 | 51.00089 | 7.75523 | 10582 ft | 289 kts | 209° |
| 2026-05-06 21:19 | 50.98322 | 7.74013 | 10171 ft | 285 kts | 209° |
| 2026-05-06 21:19 | 50.96579 | 7.72528 | 9768 ft | 282 kts | 209° |
| 2026-05-06 21:20 | 50.94855 | 7.71056 | 9341 ft | 279 kts | 209° |
| 2026-05-06 21:20 | 50.93730 | 7.70093 | 9084 ft | 276 kts | 209° |
| 2026-05-06 21:20 | 50.91511 | 7.68197 | 8584 ft | 271 kts | 209° |
| 2026-05-06 21:20 | 50.89858 | 7.66788 | 8208 ft | 268 kts | 209° |
| 2026-05-06 21:21 | 50.88247 | 7.65421 | 7925 ft | 257 kts | 209° |
| 2026-05-06 21:21 | 50.86702 | 7.64114 | 7716 ft | 242 kts | 209° |
| 2026-05-06 21:21 | 50.85255 | 7.62893 | 7480 ft | 231 kts | 209° |
| 2026-05-06 21:21 | 50.83864 | 7.61713 | 7108 ft | 228 kts | 210° |
| 2026-05-06 21:22 | 50.82471 | 7.60530 | 6682 ft | 226 kts | 210° |
| 2026-05-06 21:22 | 50.81084 | 7.59353 | 6264 ft | 225 kts | 210° |
| 2026-05-06 21:22 | 50.79729 | 7.58204 | 6037 ft | 213 kts | 210° |
| 2026-05-06 21:22 | 50.78478 | 7.57149 | 5836 ft | 202 kts | 210° |
| 2026-05-06 21:23 | 50.77245 | 7.56109 | 5469 ft | 200 kts | 210° |
| 2026-05-06 21:23 | 50.76024 | 7.55078 | 5151 ft | 197 kts | 210° |
| 2026-05-06 21:23 | 50.74805 | 7.54050 | 5079 ft | 199 kts | 210° |
| 2026-05-06 21:23 | 50.73594 | 7.53026 | 4988 ft | 199 kts | 211° |
| 2026-05-06 21:24 | 50.72509 | 7.51697 | 4901 ft | 197 kts | 230° |
| 2026-05-06 21:24 | 50.71722 | 7.49932 | 4825 ft | 193 kts | 246° |
| 2026-05-06 21:24 | 50.71291 | 7.47935 | 4771 ft | 193 kts | 263° |
| 2026-05-06 21:24 | 50.71103 | 7.45831 | 4722 ft | 193 kts | 265° |
| 2026-05-06 21:25 | 50.70913 | 7.43758 | 4649 ft | 193 kts | 265° |
| 2026-05-06 21:25 | 50.70717 | 7.41670 | 4551 ft | 192 kts | 265° |
| 2026-05-06 21:25 | 50.70571 | 7.39571 | 4401 ft | 190 kts | 277° |
| 2026-05-06 21:25 | 50.70966 | 7.37686 | 4229 ft | 182 kts | 307° |
| 2026-05-06 21:26 | 50.71838 | 7.36260 | 4021 ft | 181 kts | 320° |
| 2026-05-06 21:26 | 50.72764 | 7.34940 | 3774 ft | 179 kts | 320° |
| 2026-05-06 21:26 | 50.73694 | 7.33609 | 3534 ft | 179 kts | 320° |
| 2026-05-06 21:26 | 50.74613 | 7.32290 | 3293 ft | 178 kts | 320° |
| 2026-05-06 21:27 | 50.75520 | 7.30987 | 3089 ft | 175 kts | 320° |
| 2026-05-06 21:27 | 50.76403 | 7.29716 | 2830 ft | 169 kts | 320° |
| 2026-05-06 21:27 | 50.77261 | 7.28483 | 2586 ft | 161 kts | 320° |
| 2026-05-06 21:27 | 50.78053 | 7.27341 | 2375 ft | 151 kts | 320° |
| 2026-05-06 21:28 | 50.78804 | 7.26259 | 2177 ft | 138 kts | 320° |
| 2026-05-06 21:28 | 50.79490 | 7.25271 | 1996 ft | 130 kts | 320° |
| 2026-05-06 21:28 | 50.80117 | 7.24367 | 1837 ft | 116 kts | 320° |
| 2026-05-06 21:28 | 50.80691 | 7.23539 | 1679 ft | 110 kts | 320° |
| 2026-05-06 21:29 | 50.81253 | 7.22729 | 1512 ft | 109 kts | 320° |
| 2026-05-06 21:29 | 50.81625 | 7.22193 | 1413 ft | 108 kts | 319° |
| 2026-05-06 21:29 | 50.82365 | 7.21129 | 1185 ft | 109 kts | 318° |
| 2026-05-06 21:29 | 50.82738 | 7.20595 | 1069 ft | 109 kts | 318° |
| 2026-05-06 21:30 | 50.83302 | 7.19788 | 929 ft | 110 kts | 318° |
| 2026-05-06 21:30 | 50.83873 | 7.18929 | 771 ft | 111 kts | 319° |
| 2026-05-06 21:30 | 50.84447 | 7.18108 | 604 ft | 118 kts | 319° |
| 2026-05-06 21:30 | 50.85064 | 7.17225 | 475 ft | 121 kts | 319° |
| 2026-05-06 21:31 | 50.85659 | 7.16361 | 323 ft | 111 kts | 321° |
| 2026-05-06 21:31 | 50.86156 | 7.15651 | 281 ft | 75 kts | 316° |
| 2026-05-06 21:31 | 50.86434 | 7.15245 | 267 ft | 46 kts | 318° |
| 2026-05-06 21:31 | 50.86688 | 7.14884 | 260 ft | 45 kts | 318° |
| 2026-05-06 21:32 | 50.86707 | 7.14645 | 259 ft | 25 kts | 240° |
| 2026-05-06 21:32 | 50.86504 | 7.13988 | 253 ft | 40 kts | 244° |
| 2026-05-06 21:32 | 50.86379 | 7.13565 | 252 ft | 45 kts | 245° |
| 2026-05-06 21:33 | 50.86233 | 7.13087 | 243 ft | 52 kts | 243° |
| 2026-05-06 21:33 | 50.86114 | 7.12709 | 242 ft | 25 kts | 246° |
| 2026-05-06 21:33 | 50.86103 | 7.12466 | 244 ft | 12 kts | 265° |
| 2026-05-06 21:33 | 50.86099 | 7.12382 | 243 ft | 7 kts | 317° |
| 2026-05-06 21:34 | 50.86178 | 7.12349 | 239 ft | 17 kts | 349° |
| 2026-05-06 21:34 | 50.86319 | 7.12302 | 233 ft | 23 kts | 344° |
| 2026-05-06 21:34 | 50.86437 | 7.12254 | 232 ft | 16 kts | 346° |
| 2026-05-06 21:34 | 50.86515 | 7.12222 | 233 ft | 2 kts | 345° |
| 2026-05-06 21:35 | 50.86525 | 7.12218 | 232 ft | 5 kts | 345° |
| 2026-05-06 21:35 | 50.86589 | 7.12190 | 233 ft | 15 kts | 342° |
| 2026-05-06 21:35 | 50.86634 | 7.12073 | 232 ft | 2 kts | 269° |
| 2026-05-06 21:35 | 50.86615 | 7.12026 | 233 ft | 8 kts | 229° |
| 2026-05-06 21:36 | 50.86607 | 7.11993 | 232 ft | 1 kts | 257° |
| 2026-05-06 21:36 | 50.86607 | 7.11992 | 232 ft | 0 kts | 257° |
| 2026-05-06 21:37 | 50.86607 | 7.11993 | 232 ft | 0 kts | 257° |
| 2026-05-06 21:37 | 50.86607 | 7.11995 | 232 ft | 0 kts | 256° |
| 2026-05-06 21:37 | 50.86607 | 7.11993 | 232 ft | 0 kts | 256° |